<?xml version="1.0" encoding="UTF-8" standalone="no" ?>
<gpx xmlns="http://www.topografix.com/GPX/1/1" xmlns:xsi="http://www.w3.org/2001/XMLSchema-instance" xsi:schemaLocation="http://www.topografix.com/GPX/1/1 http://www.topografix.com/GPX/1/1/gpx.xsd" version="1.1" creator="VisuGPX - https://www.visugpx.com">
  <metadata>
    <name>randonnée internationale d angecourtmarche</name>
    <desc><![CDATA[marche internationale super malgré le mauvais temps passer a travers les gouttes]]></desc>
  </metadata>
  <trk>
    <name><![CDATA[Tracé actuel: 17 MARS 2019 09:37]]></name>
    <trkseg>
      <trkpt lat="49.6345" lon="4.9806">
        <ele>183.75</ele>
        <time>2019-03-17T08:37:26Z</time>
      </trkpt>
      <trkpt lat="49.63451" lon="4.98112">
        <ele>203.94</ele>
        <time>2019-03-17T08:37:47Z</time>
      </trkpt>
      <trkpt lat="49.6345" lon="4.98136">
        <ele>214.99</ele>
        <time>2019-03-17T08:37:51Z</time>
      </trkpt>
      <trkpt lat="49.63441" lon="4.98163">
        <ele>231.33</ele>
        <time>2019-03-17T08:38:03Z</time>
      </trkpt>
      <trkpt lat="49.63435" lon="4.9821">
        <ele>254.89</ele>
        <time>2019-03-17T08:38:14Z</time>
      </trkpt>
      <trkpt lat="49.63431" lon="4.98191">
        <ele>251.52</ele>
        <time>2019-03-17T08:38:24Z</time>
      </trkpt>
      <trkpt lat="49.6343" lon="4.98154">
        <ele>245.27</ele>
        <time>2019-03-17T08:38:41Z</time>
      </trkpt>
      <trkpt lat="49.63422" lon="4.9813">
        <ele>240.95</ele>
        <time>2019-03-17T08:38:54Z</time>
      </trkpt>
      <trkpt lat="49.6341" lon="4.98114">
        <ele>236.62</ele>
        <time>2019-03-17T08:39:08Z</time>
      </trkpt>
      <trkpt lat="49.63404" lon="4.98105">
        <ele>230.85</ele>
        <time>2019-03-17T08:39:18Z</time>
      </trkpt>
      <trkpt lat="49.63417" lon="4.98073">
        <ele>227.49</ele>
        <time>2019-03-17T08:39:33Z</time>
      </trkpt>
      <trkpt lat="49.63419" lon="4.9807">
        <ele>226.05</ele>
        <time>2019-03-17T08:39:35Z</time>
      </trkpt>
      <trkpt lat="49.63422" lon="4.98041">
        <ele>221.72</ele>
        <time>2019-03-17T08:39:41Z</time>
      </trkpt>
      <trkpt lat="49.63426" lon="4.97909">
        <ele>181.35</ele>
        <time>2019-03-17T08:39:56Z</time>
      </trkpt>
      <trkpt lat="49.63434" lon="4.97902">
        <ele>181.35</ele>
        <time>2019-03-17T08:40:11Z</time>
      </trkpt>
      <trkpt lat="49.63451" lon="4.97894">
        <ele>171.25</ele>
        <time>2019-03-17T08:40:26Z</time>
      </trkpt>
      <trkpt lat="49.63459" lon="4.97888">
        <ele>169.81</ele>
        <time>2019-03-17T08:40:33Z</time>
      </trkpt>
      <trkpt lat="49.63462" lon="4.97882">
        <ele>169.33</ele>
        <time>2019-03-17T08:40:37Z</time>
      </trkpt>
      <trkpt lat="49.63476" lon="4.97864">
        <ele>167.41</ele>
        <time>2019-03-17T08:40:54Z</time>
      </trkpt>
      <trkpt lat="49.63486" lon="4.97846">
        <ele>168.37</ele>
        <time>2019-03-17T08:41:08Z</time>
      </trkpt>
      <trkpt lat="49.63488" lon="4.97842">
        <ele>168.37</ele>
        <time>2019-03-17T08:41:11Z</time>
      </trkpt>
      <trkpt lat="49.63499" lon="4.97828">
        <ele>165</ele>
        <time>2019-03-17T08:41:26Z</time>
      </trkpt>
      <trkpt lat="49.63513" lon="4.97808">
        <ele>164.52</ele>
        <time>2019-03-17T08:41:43Z</time>
      </trkpt>
      <trkpt lat="49.63529" lon="4.97792">
        <ele>163.56</ele>
        <time>2019-03-17T08:42:01Z</time>
      </trkpt>
      <trkpt lat="49.63536" lon="4.97778">
        <ele>163.56</ele>
        <time>2019-03-17T08:42:14Z</time>
      </trkpt>
      <trkpt lat="49.63547" lon="4.97747">
        <ele>168.37</ele>
        <time>2019-03-17T08:42:35Z</time>
      </trkpt>
      <trkpt lat="49.63559" lon="4.97725">
        <ele>165.48</ele>
        <time>2019-03-17T08:42:51Z</time>
      </trkpt>
      <trkpt lat="49.63569" lon="4.97707">
        <ele>163.08</ele>
        <time>2019-03-17T08:43:05Z</time>
      </trkpt>
      <trkpt lat="49.63576" lon="4.97699">
        <ele>163.56</ele>
        <time>2019-03-17T08:43:19Z</time>
      </trkpt>
      <trkpt lat="49.63578" lon="4.97701">
        <ele>163.56</ele>
        <time>2019-03-17T08:43:29Z</time>
      </trkpt>
      <trkpt lat="49.63578" lon="4.97698">
        <ele>164.52</ele>
        <time>2019-03-17T08:43:44Z</time>
      </trkpt>
      <trkpt lat="49.63578" lon="4.97698">
        <ele>165</ele>
        <time>2019-03-17T08:44:09Z</time>
      </trkpt>
      <trkpt lat="49.63578" lon="4.97699">
        <ele>165</ele>
        <time>2019-03-17T08:44:35Z</time>
      </trkpt>
      <trkpt lat="49.63578" lon="4.97699">
        <ele>165</ele>
        <time>2019-03-17T08:45:03Z</time>
      </trkpt>
      <trkpt lat="49.63579" lon="4.97699">
        <ele>165</ele>
        <time>2019-03-17T08:45:21Z</time>
      </trkpt>
      <trkpt lat="49.63576" lon="4.97698">
        <ele>163.08</ele>
        <time>2019-03-17T08:45:38Z</time>
      </trkpt>
      <trkpt lat="49.63573" lon="4.97695">
        <ele>161.16</ele>
        <time>2019-03-17T08:45:55Z</time>
      </trkpt>
      <trkpt lat="49.63586" lon="4.9768">
        <ele>158.75</ele>
        <time>2019-03-17T08:46:08Z</time>
      </trkpt>
      <trkpt lat="49.63589" lon="4.97674">
        <ele>158.27</ele>
        <time>2019-03-17T08:46:12Z</time>
      </trkpt>
      <trkpt lat="49.636" lon="4.97654">
        <ele>160.2</ele>
        <time>2019-03-17T08:46:28Z</time>
      </trkpt>
      <trkpt lat="49.6359" lon="4.97635">
        <ele>161.64</ele>
        <time>2019-03-17T08:46:43Z</time>
      </trkpt>
      <trkpt lat="49.63577" lon="4.97618">
        <ele>158.75</ele>
        <time>2019-03-17T08:46:57Z</time>
      </trkpt>
      <trkpt lat="49.63563" lon="4.97608">
        <ele>147.7</ele>
        <time>2019-03-17T08:47:13Z</time>
      </trkpt>
      <trkpt lat="49.63551" lon="4.97589">
        <ele>145.3</ele>
        <time>2019-03-17T08:47:29Z</time>
      </trkpt>
      <trkpt lat="49.63538" lon="4.97559">
        <ele>151.06</ele>
        <time>2019-03-17T08:47:45Z</time>
      </trkpt>
      <trkpt lat="49.63525" lon="4.97536">
        <ele>156.83</ele>
        <time>2019-03-17T08:48:00Z</time>
      </trkpt>
      <trkpt lat="49.63511" lon="4.97511">
        <ele>158.75</ele>
        <time>2019-03-17T08:48:16Z</time>
      </trkpt>
      <trkpt lat="49.635" lon="4.97491">
        <ele>158.75</ele>
        <time>2019-03-17T08:48:31Z</time>
      </trkpt>
      <trkpt lat="49.63489" lon="4.97474">
        <ele>158.27</ele>
        <time>2019-03-17T08:48:44Z</time>
      </trkpt>
      <trkpt lat="49.63481" lon="4.97456">
        <ele>155.39</ele>
        <time>2019-03-17T08:48:57Z</time>
      </trkpt>
      <trkpt lat="49.63472" lon="4.97447">
        <ele>150.1</ele>
        <time>2019-03-17T08:49:11Z</time>
      </trkpt>
      <trkpt lat="49.63469" lon="4.97443">
        <ele>150.58</ele>
        <time>2019-03-17T08:49:15Z</time>
      </trkpt>
      <trkpt lat="49.63465" lon="4.97437">
        <ele>151.54</ele>
        <time>2019-03-17T08:49:19Z</time>
      </trkpt>
      <trkpt lat="49.63454" lon="4.97416">
        <ele>150.58</ele>
        <time>2019-03-17T08:49:34Z</time>
      </trkpt>
      <trkpt lat="49.63443" lon="4.97396">
        <ele>154.43</ele>
        <time>2019-03-17T08:49:49Z</time>
      </trkpt>
      <trkpt lat="49.6343" lon="4.97372">
        <ele>159.24</ele>
        <time>2019-03-17T08:50:06Z</time>
      </trkpt>
      <trkpt lat="49.6342" lon="4.97353">
        <ele>159.24</ele>
        <time>2019-03-17T08:50:20Z</time>
      </trkpt>
      <trkpt lat="49.63402" lon="4.97313">
        <ele>161.16</ele>
        <time>2019-03-17T08:50:38Z</time>
      </trkpt>
      <trkpt lat="49.6339" lon="4.97297">
        <ele>160.68</ele>
        <time>2019-03-17T08:50:53Z</time>
      </trkpt>
      <trkpt lat="49.63376" lon="4.97271">
        <ele>158.27</ele>
        <time>2019-03-17T08:51:09Z</time>
      </trkpt>
      <trkpt lat="49.6336" lon="4.9725">
        <ele>153.47</ele>
        <time>2019-03-17T08:51:27Z</time>
      </trkpt>
      <trkpt lat="49.6335" lon="4.9723">
        <ele>151.54</ele>
        <time>2019-03-17T08:51:43Z</time>
      </trkpt>
      <trkpt lat="49.63345" lon="4.97205">
        <ele>149.14</ele>
        <time>2019-03-17T08:52:00Z</time>
      </trkpt>
      <trkpt lat="49.63333" lon="4.97175">
        <ele>150.1</ele>
        <time>2019-03-17T08:52:18Z</time>
      </trkpt>
      <trkpt lat="49.63328" lon="4.97145">
        <ele>161.64</ele>
        <time>2019-03-17T08:52:32Z</time>
      </trkpt>
      <trkpt lat="49.63321" lon="4.97117">
        <ele>165</ele>
        <time>2019-03-17T08:52:48Z</time>
      </trkpt>
      <trkpt lat="49.63315" lon="4.97084">
        <ele>165</ele>
        <time>2019-03-17T08:53:07Z</time>
      </trkpt>
      <trkpt lat="49.63313" lon="4.97073">
        <ele>165</ele>
        <time>2019-03-17T08:53:13Z</time>
      </trkpt>
      <trkpt lat="49.63307" lon="4.97044">
        <ele>167.41</ele>
        <time>2019-03-17T08:53:30Z</time>
      </trkpt>
      <trkpt lat="49.63301" lon="4.9702">
        <ele>165.96</ele>
        <time>2019-03-17T08:53:45Z</time>
      </trkpt>
      <trkpt lat="49.63294" lon="4.96993">
        <ele>165.48</ele>
        <time>2019-03-17T08:54:00Z</time>
      </trkpt>
      <trkpt lat="49.63289" lon="4.96968">
        <ele>163.56</ele>
        <time>2019-03-17T08:54:15Z</time>
      </trkpt>
      <trkpt lat="49.63281" lon="4.96939">
        <ele>165.48</ele>
        <time>2019-03-17T08:54:32Z</time>
      </trkpt>
      <trkpt lat="49.63274" lon="4.96907">
        <ele>165.96</ele>
        <time>2019-03-17T08:54:48Z</time>
      </trkpt>
      <trkpt lat="49.63265" lon="4.9688">
        <ele>166.93</ele>
        <time>2019-03-17T08:55:04Z</time>
      </trkpt>
      <trkpt lat="49.63254" lon="4.96856">
        <ele>168.37</ele>
        <time>2019-03-17T08:55:20Z</time>
      </trkpt>
      <trkpt lat="49.63243" lon="4.96835">
        <ele>167.41</ele>
        <time>2019-03-17T08:55:35Z</time>
      </trkpt>
      <trkpt lat="49.63231" lon="4.96811">
        <ele>167.41</ele>
        <time>2019-03-17T08:55:53Z</time>
      </trkpt>
      <trkpt lat="49.63227" lon="4.96806">
        <ele>166.45</ele>
        <time>2019-03-17T08:55:57Z</time>
      </trkpt>
      <trkpt lat="49.63212" lon="4.96781">
        <ele>166.45</ele>
        <time>2019-03-17T08:56:15Z</time>
      </trkpt>
      <trkpt lat="49.63194" lon="4.96759">
        <ele>168.85</ele>
        <time>2019-03-17T08:56:33Z</time>
      </trkpt>
      <trkpt lat="49.63179" lon="4.96747">
        <ele>170.29</ele>
        <time>2019-03-17T08:56:49Z</time>
      </trkpt>
      <trkpt lat="49.6316" lon="4.96728">
        <ele>170.77</ele>
        <time>2019-03-17T08:57:07Z</time>
      </trkpt>
      <trkpt lat="49.63142" lon="4.96711">
        <ele>171.25</ele>
        <time>2019-03-17T08:57:24Z</time>
      </trkpt>
      <trkpt lat="49.63128" lon="4.96698">
        <ele>170.77</ele>
        <time>2019-03-17T08:57:38Z</time>
      </trkpt>
      <trkpt lat="49.6311" lon="4.96684">
        <ele>166.93</ele>
        <time>2019-03-17T08:57:56Z</time>
      </trkpt>
      <trkpt lat="49.63095" lon="4.9667">
        <ele>166.45</ele>
        <time>2019-03-17T08:58:11Z</time>
      </trkpt>
      <trkpt lat="49.6308" lon="4.96655">
        <ele>166.45</ele>
        <time>2019-03-17T08:58:27Z</time>
      </trkpt>
      <trkpt lat="49.63063" lon="4.96637">
        <ele>169.33</ele>
        <time>2019-03-17T08:58:44Z</time>
      </trkpt>
      <trkpt lat="49.63047" lon="4.96623">
        <ele>169.81</ele>
        <time>2019-03-17T08:59:01Z</time>
      </trkpt>
      <trkpt lat="49.63029" lon="4.96608">
        <ele>174.14</ele>
        <time>2019-03-17T08:59:17Z</time>
      </trkpt>
      <trkpt lat="49.63015" lon="4.96596">
        <ele>173.17</ele>
        <time>2019-03-17T08:59:32Z</time>
      </trkpt>
      <trkpt lat="49.63002" lon="4.96582">
        <ele>174.62</ele>
        <time>2019-03-17T08:59:45Z</time>
      </trkpt>
      <trkpt lat="49.62986" lon="4.96569">
        <ele>173.66</ele>
        <time>2019-03-17T09:00:00Z</time>
      </trkpt>
      <trkpt lat="49.6297" lon="4.9656">
        <ele>168.85</ele>
        <time>2019-03-17T09:00:17Z</time>
      </trkpt>
      <trkpt lat="49.62953" lon="4.96545">
        <ele>174.14</ele>
        <time>2019-03-17T09:00:32Z</time>
      </trkpt>
      <trkpt lat="49.62938" lon="4.96532">
        <ele>178.46</ele>
        <time>2019-03-17T09:00:46Z</time>
      </trkpt>
      <trkpt lat="49.62929" lon="4.96526">
        <ele>177.02</ele>
        <time>2019-03-17T09:00:55Z</time>
      </trkpt>
      <trkpt lat="49.62908" lon="4.96508">
        <ele>179.42</ele>
        <time>2019-03-17T09:01:13Z</time>
      </trkpt>
      <trkpt lat="49.62892" lon="4.96498">
        <ele>185.67</ele>
        <time>2019-03-17T09:01:28Z</time>
      </trkpt>
      <trkpt lat="49.62876" lon="4.96489">
        <ele>177.98</ele>
        <time>2019-03-17T09:01:44Z</time>
      </trkpt>
      <trkpt lat="49.62855" lon="4.96478">
        <ele>172.69</ele>
        <time>2019-03-17T09:02:01Z</time>
      </trkpt>
      <trkpt lat="49.6284" lon="4.9647">
        <ele>171.25</ele>
        <time>2019-03-17T09:02:15Z</time>
      </trkpt>
      <trkpt lat="49.62824" lon="4.9646">
        <ele>167.41</ele>
        <time>2019-03-17T09:02:31Z</time>
      </trkpt>
      <trkpt lat="49.62816" lon="4.96455">
        <ele>166.45</ele>
        <time>2019-03-17T09:02:38Z</time>
      </trkpt>
      <trkpt lat="49.62795" lon="4.96445">
        <ele>167.89</ele>
        <time>2019-03-17T09:02:55Z</time>
      </trkpt>
      <trkpt lat="49.62781" lon="4.96439">
        <ele>165.96</ele>
        <time>2019-03-17T09:03:08Z</time>
      </trkpt>
      <trkpt lat="49.62768" lon="4.96433">
        <ele>160.2</ele>
        <time>2019-03-17T09:03:20Z</time>
      </trkpt>
      <trkpt lat="49.6275" lon="4.96424">
        <ele>157.31</ele>
        <time>2019-03-17T09:03:36Z</time>
      </trkpt>
      <trkpt lat="49.62733" lon="4.96412">
        <ele>159.72</ele>
        <time>2019-03-17T09:03:51Z</time>
      </trkpt>
      <trkpt lat="49.62709" lon="4.96398">
        <ele>159.24</ele>
        <time>2019-03-17T09:04:10Z</time>
      </trkpt>
      <trkpt lat="49.62689" lon="4.96388">
        <ele>157.79</ele>
        <time>2019-03-17T09:04:28Z</time>
      </trkpt>
      <trkpt lat="49.62673" lon="4.96378">
        <ele>157.31</ele>
        <time>2019-03-17T09:04:43Z</time>
      </trkpt>
      <trkpt lat="49.62659" lon="4.96371">
        <ele>154.43</ele>
        <time>2019-03-17T09:04:57Z</time>
      </trkpt>
      <trkpt lat="49.6264" lon="4.96364">
        <ele>150.1</ele>
        <time>2019-03-17T09:05:13Z</time>
      </trkpt>
      <trkpt lat="49.62623" lon="4.96353">
        <ele>156.83</ele>
        <time>2019-03-17T09:05:30Z</time>
      </trkpt>
      <trkpt lat="49.62608" lon="4.96346">
        <ele>156.83</ele>
        <time>2019-03-17T09:05:44Z</time>
      </trkpt>
      <trkpt lat="49.62595" lon="4.96343">
        <ele>174.62</ele>
        <time>2019-03-17T09:05:58Z</time>
      </trkpt>
      <trkpt lat="49.62574" lon="4.96326">
        <ele>176.54</ele>
        <time>2019-03-17T09:06:16Z</time>
      </trkpt>
      <trkpt lat="49.62552" lon="4.96315">
        <ele>177.5</ele>
        <time>2019-03-17T09:06:35Z</time>
      </trkpt>
      <trkpt lat="49.62531" lon="4.96303">
        <ele>178.46</ele>
        <time>2019-03-17T09:06:54Z</time>
      </trkpt>
      <trkpt lat="49.62511" lon="4.96294">
        <ele>180.38</ele>
        <time>2019-03-17T09:07:13Z</time>
      </trkpt>
      <trkpt lat="49.62493" lon="4.96284">
        <ele>182.79</ele>
        <time>2019-03-17T09:07:30Z</time>
      </trkpt>
      <trkpt lat="49.62481" lon="4.96289">
        <ele>181.83</ele>
        <time>2019-03-17T09:07:43Z</time>
      </trkpt>
      <trkpt lat="49.62477" lon="4.96301">
        <ele>178.46</ele>
        <time>2019-03-17T09:07:50Z</time>
      </trkpt>
      <trkpt lat="49.62466" lon="4.96299">
        <ele>174.14</ele>
        <time>2019-03-17T09:08:01Z</time>
      </trkpt>
      <trkpt lat="49.62463" lon="4.96305">
        <ele>175.1</ele>
        <time>2019-03-17T09:08:05Z</time>
      </trkpt>
      <trkpt lat="49.62454" lon="4.96299">
        <ele>177.5</ele>
        <time>2019-03-17T09:08:12Z</time>
      </trkpt>
      <trkpt lat="49.62431" lon="4.96265">
        <ele>178.46</ele>
        <time>2019-03-17T09:08:29Z</time>
      </trkpt>
      <trkpt lat="49.62408" lon="4.96239">
        <ele>173.66</ele>
        <time>2019-03-17T09:08:46Z</time>
      </trkpt>
      <trkpt lat="49.62393" lon="4.9623">
        <ele>168.85</ele>
        <time>2019-03-17T09:09:00Z</time>
      </trkpt>
      <trkpt lat="49.62375" lon="4.96223">
        <ele>169.33</ele>
        <time>2019-03-17T09:09:16Z</time>
      </trkpt>
      <trkpt lat="49.62373" lon="4.96222">
        <ele>168.85</ele>
        <time>2019-03-17T09:09:18Z</time>
      </trkpt>
      <trkpt lat="49.62352" lon="4.96218">
        <ele>165</ele>
        <time>2019-03-17T09:09:36Z</time>
      </trkpt>
      <trkpt lat="49.62331" lon="4.96214">
        <ele>174.62</ele>
        <time>2019-03-17T09:09:55Z</time>
      </trkpt>
      <trkpt lat="49.62311" lon="4.96208">
        <ele>180.87</ele>
        <time>2019-03-17T09:10:14Z</time>
      </trkpt>
      <trkpt lat="49.6229" lon="4.96206">
        <ele>181.35</ele>
        <time>2019-03-17T09:10:33Z</time>
      </trkpt>
      <trkpt lat="49.62263" lon="4.962">
        <ele>179.42</ele>
        <time>2019-03-17T09:10:55Z</time>
      </trkpt>
      <trkpt lat="49.62247" lon="4.96197">
        <ele>175.58</ele>
        <time>2019-03-17T09:11:10Z</time>
      </trkpt>
      <trkpt lat="49.62228" lon="4.9619">
        <ele>170.29</ele>
        <time>2019-03-17T09:11:28Z</time>
      </trkpt>
      <trkpt lat="49.62204" lon="4.96183">
        <ele>165.96</ele>
        <time>2019-03-17T09:11:48Z</time>
      </trkpt>
      <trkpt lat="49.62182" lon="4.96182">
        <ele>171.73</ele>
        <time>2019-03-17T09:12:08Z</time>
      </trkpt>
      <trkpt lat="49.62161" lon="4.96175">
        <ele>175.58</ele>
        <time>2019-03-17T09:12:23Z</time>
      </trkpt>
      <trkpt lat="49.62142" lon="4.96167">
        <ele>177.98</ele>
        <time>2019-03-17T09:12:40Z</time>
      </trkpt>
      <trkpt lat="49.62122" lon="4.96161">
        <ele>181.35</ele>
        <time>2019-03-17T09:12:58Z</time>
      </trkpt>
      <trkpt lat="49.62099" lon="4.96154">
        <ele>181.35</ele>
        <time>2019-03-17T09:13:18Z</time>
      </trkpt>
      <trkpt lat="49.62088" lon="4.96152">
        <ele>183.27</ele>
        <time>2019-03-17T09:13:28Z</time>
      </trkpt>
      <trkpt lat="49.62084" lon="4.96151">
        <ele>183.75</ele>
        <time>2019-03-17T09:13:31Z</time>
      </trkpt>
      <trkpt lat="49.62072" lon="4.96149">
        <ele>184.23</ele>
        <time>2019-03-17T09:13:42Z</time>
      </trkpt>
      <trkpt lat="49.62054" lon="4.96143">
        <ele>183.75</ele>
        <time>2019-03-17T09:13:58Z</time>
      </trkpt>
      <trkpt lat="49.62037" lon="4.96143">
        <ele>181.83</ele>
        <time>2019-03-17T09:14:14Z</time>
      </trkpt>
      <trkpt lat="49.62016" lon="4.96135">
        <ele>183.75</ele>
        <time>2019-03-17T09:14:31Z</time>
      </trkpt>
      <trkpt lat="49.61996" lon="4.96132">
        <ele>181.83</ele>
        <time>2019-03-17T09:14:49Z</time>
      </trkpt>
      <trkpt lat="49.61976" lon="4.96129">
        <ele>184.71</ele>
        <time>2019-03-17T09:15:07Z</time>
      </trkpt>
      <trkpt lat="49.61963" lon="4.96124">
        <ele>187.59</ele>
        <time>2019-03-17T09:15:17Z</time>
      </trkpt>
      <trkpt lat="49.61948" lon="4.96119">
        <ele>185.19</ele>
        <time>2019-03-17T09:15:30Z</time>
      </trkpt>
      <trkpt lat="49.61928" lon="4.96116">
        <ele>184.23</ele>
        <time>2019-03-17T09:15:47Z</time>
      </trkpt>
      <trkpt lat="49.6191" lon="4.9611">
        <ele>186.63</ele>
        <time>2019-03-17T09:16:02Z</time>
      </trkpt>
      <trkpt lat="49.61892" lon="4.96109">
        <ele>190</ele>
        <time>2019-03-17T09:16:19Z</time>
      </trkpt>
      <trkpt lat="49.61875" lon="4.96102">
        <ele>189.52</ele>
        <time>2019-03-17T09:16:33Z</time>
      </trkpt>
      <trkpt lat="49.61872" lon="4.96102">
        <ele>189.52</ele>
        <time>2019-03-17T09:16:36Z</time>
      </trkpt>
      <trkpt lat="49.61862" lon="4.96099">
        <ele>189.52</ele>
        <time>2019-03-17T09:16:44Z</time>
      </trkpt>
      <trkpt lat="49.61853" lon="4.961">
        <ele>187.11</ele>
        <time>2019-03-17T09:17:00Z</time>
      </trkpt>
      <trkpt lat="49.61852" lon="4.96102">
        <ele>186.15</ele>
        <time>2019-03-17T09:17:15Z</time>
      </trkpt>
      <trkpt lat="49.61852" lon="4.96102">
        <ele>186.15</ele>
        <time>2019-03-17T09:17:32Z</time>
      </trkpt>
      <trkpt lat="49.61852" lon="4.96102">
        <ele>186.15</ele>
        <time>2019-03-17T09:17:49Z</time>
      </trkpt>
      <trkpt lat="49.61852" lon="4.96102">
        <ele>185.67</ele>
        <time>2019-03-17T09:18:04Z</time>
      </trkpt>
      <trkpt lat="49.61852" lon="4.96101">
        <ele>186.63</ele>
        <time>2019-03-17T09:18:35Z</time>
      </trkpt>
      <trkpt lat="49.61851" lon="4.96101">
        <ele>187.11</ele>
        <time>2019-03-17T09:18:54Z</time>
      </trkpt>
      <trkpt lat="49.61851" lon="4.96101">
        <ele>187.59</ele>
        <time>2019-03-17T09:19:10Z</time>
      </trkpt>
      <trkpt lat="49.6185" lon="4.961">
        <ele>186.15</ele>
        <time>2019-03-17T09:19:35Z</time>
      </trkpt>
      <trkpt lat="49.6185" lon="4.96101">
        <ele>186.15</ele>
        <time>2019-03-17T09:19:54Z</time>
      </trkpt>
      <trkpt lat="49.61851" lon="4.96101">
        <ele>186.63</ele>
        <time>2019-03-17T09:20:09Z</time>
      </trkpt>
      <trkpt lat="49.61843" lon="4.96092">
        <ele>187.11</ele>
        <time>2019-03-17T09:20:19Z</time>
      </trkpt>
      <trkpt lat="49.61823" lon="4.96082">
        <ele>183.75</ele>
        <time>2019-03-17T09:20:37Z</time>
      </trkpt>
      <trkpt lat="49.618" lon="4.96073">
        <ele>178.46</ele>
        <time>2019-03-17T09:20:54Z</time>
      </trkpt>
      <trkpt lat="49.6178" lon="4.96065">
        <ele>169.33</ele>
        <time>2019-03-17T09:21:11Z</time>
      </trkpt>
      <trkpt lat="49.61762" lon="4.96058">
        <ele>165.48</ele>
        <time>2019-03-17T09:21:27Z</time>
      </trkpt>
      <trkpt lat="49.61745" lon="4.96054">
        <ele>157.31</ele>
        <time>2019-03-17T09:21:44Z</time>
      </trkpt>
      <trkpt lat="49.61727" lon="4.96051">
        <ele>147.7</ele>
        <time>2019-03-17T09:22:02Z</time>
      </trkpt>
      <trkpt lat="49.6171" lon="4.96048">
        <ele>136.64</ele>
        <time>2019-03-17T09:22:21Z</time>
      </trkpt>
      <trkpt lat="49.61688" lon="4.96041">
        <ele>127.99</ele>
        <time>2019-03-17T09:22:40Z</time>
      </trkpt>
      <trkpt lat="49.61667" lon="4.96027">
        <ele>128.95</ele>
        <time>2019-03-17T09:22:57Z</time>
      </trkpt>
      <trkpt lat="49.61646" lon="4.96022">
        <ele>133.28</ele>
        <time>2019-03-17T09:23:12Z</time>
      </trkpt>
      <trkpt lat="49.61626" lon="4.96018">
        <ele>140.01</ele>
        <time>2019-03-17T09:23:29Z</time>
      </trkpt>
      <trkpt lat="49.61616" lon="4.96017">
        <ele>140.97</ele>
        <time>2019-03-17T09:23:44Z</time>
      </trkpt>
      <trkpt lat="49.61596" lon="4.96015">
        <ele>140.49</ele>
        <time>2019-03-17T09:24:00Z</time>
      </trkpt>
      <trkpt lat="49.61572" lon="4.96005">
        <ele>143.37</ele>
        <time>2019-03-17T09:24:18Z</time>
      </trkpt>
      <trkpt lat="49.61549" lon="4.95989">
        <ele>140.49</ele>
        <time>2019-03-17T09:24:36Z</time>
      </trkpt>
      <trkpt lat="49.61536" lon="4.95989">
        <ele>140.49</ele>
        <time>2019-03-17T09:24:49Z</time>
      </trkpt>
      <trkpt lat="49.61519" lon="4.95982">
        <ele>142.41</ele>
        <time>2019-03-17T09:25:04Z</time>
      </trkpt>
      <trkpt lat="49.61506" lon="4.95972">
        <ele>141.93</ele>
        <time>2019-03-17T09:25:18Z</time>
      </trkpt>
      <trkpt lat="49.61494" lon="4.95969">
        <ele>141.45</ele>
        <time>2019-03-17T09:25:31Z</time>
      </trkpt>
      <trkpt lat="49.61483" lon="4.95959">
        <ele>142.41</ele>
        <time>2019-03-17T09:25:45Z</time>
      </trkpt>
      <trkpt lat="49.61474" lon="4.9595">
        <ele>144.34</ele>
        <time>2019-03-17T09:25:53Z</time>
      </trkpt>
      <trkpt lat="49.61469" lon="4.95946">
        <ele>147.22</ele>
        <time>2019-03-17T09:25:56Z</time>
      </trkpt>
      <trkpt lat="49.61455" lon="4.95938">
        <ele>159.72</ele>
        <time>2019-03-17T09:26:11Z</time>
      </trkpt>
      <trkpt lat="49.61442" lon="4.9592">
        <ele>162.6</ele>
        <time>2019-03-17T09:26:27Z</time>
      </trkpt>
      <trkpt lat="49.61423" lon="4.95891">
        <ele>170.77</ele>
        <time>2019-03-17T09:26:45Z</time>
      </trkpt>
      <trkpt lat="49.61407" lon="4.95868">
        <ele>171.73</ele>
        <time>2019-03-17T09:27:02Z</time>
      </trkpt>
      <trkpt lat="49.61392" lon="4.95849">
        <ele>169.81</ele>
        <time>2019-03-17T09:27:19Z</time>
      </trkpt>
      <trkpt lat="49.61378" lon="4.95831">
        <ele>166.45</ele>
        <time>2019-03-17T09:27:38Z</time>
      </trkpt>
      <trkpt lat="49.61365" lon="4.95816">
        <ele>165.96</ele>
        <time>2019-03-17T09:27:54Z</time>
      </trkpt>
      <trkpt lat="49.61352" lon="4.95802">
        <ele>165.48</ele>
        <time>2019-03-17T09:28:09Z</time>
      </trkpt>
      <trkpt lat="49.61336" lon="4.95775">
        <ele>167.89</ele>
        <time>2019-03-17T09:28:25Z</time>
      </trkpt>
      <trkpt lat="49.61315" lon="4.95747">
        <ele>172.69</ele>
        <time>2019-03-17T09:28:42Z</time>
      </trkpt>
      <trkpt lat="49.61297" lon="4.95731">
        <ele>176.54</ele>
        <time>2019-03-17T09:28:59Z</time>
      </trkpt>
      <trkpt lat="49.61279" lon="4.9571">
        <ele>181.83</ele>
        <time>2019-03-17T09:29:14Z</time>
      </trkpt>
      <trkpt lat="49.61264" lon="4.95702">
        <ele>181.35</ele>
        <time>2019-03-17T09:29:30Z</time>
      </trkpt>
      <trkpt lat="49.61248" lon="4.95684">
        <ele>183.27</ele>
        <time>2019-03-17T09:29:44Z</time>
      </trkpt>
      <trkpt lat="49.61234" lon="4.95678">
        <ele>180.87</ele>
        <time>2019-03-17T09:29:58Z</time>
      </trkpt>
      <trkpt lat="49.61221" lon="4.95671">
        <ele>178.46</ele>
        <time>2019-03-17T09:30:12Z</time>
      </trkpt>
      <trkpt lat="49.61204" lon="4.95663">
        <ele>177.5</ele>
        <time>2019-03-17T09:30:28Z</time>
      </trkpt>
      <trkpt lat="49.61192" lon="4.95659">
        <ele>177.02</ele>
        <time>2019-03-17T09:30:40Z</time>
      </trkpt>
      <trkpt lat="49.61179" lon="4.95651">
        <ele>178.46</ele>
        <time>2019-03-17T09:30:54Z</time>
      </trkpt>
      <trkpt lat="49.61164" lon="4.95639">
        <ele>178.94</ele>
        <time>2019-03-17T09:31:09Z</time>
      </trkpt>
      <trkpt lat="49.61158" lon="4.95639">
        <ele>178.94</ele>
        <time>2019-03-17T09:31:15Z</time>
      </trkpt>
      <trkpt lat="49.61141" lon="4.95627">
        <ele>177.02</ele>
        <time>2019-03-17T09:31:33Z</time>
      </trkpt>
      <trkpt lat="49.61123" lon="4.95611">
        <ele>178.94</ele>
        <time>2019-03-17T09:31:50Z</time>
      </trkpt>
      <trkpt lat="49.6111" lon="4.95605">
        <ele>177.98</ele>
        <time>2019-03-17T09:32:04Z</time>
      </trkpt>
      <trkpt lat="49.61088" lon="4.95587">
        <ele>180.87</ele>
        <time>2019-03-17T09:32:22Z</time>
      </trkpt>
      <trkpt lat="49.61073" lon="4.95576">
        <ele>181.35</ele>
        <time>2019-03-17T09:32:36Z</time>
      </trkpt>
      <trkpt lat="49.61055" lon="4.95571">
        <ele>178.94</ele>
        <time>2019-03-17T09:32:54Z</time>
      </trkpt>
      <trkpt lat="49.61038" lon="4.95566">
        <ele>175.58</ele>
        <time>2019-03-17T09:33:10Z</time>
      </trkpt>
      <trkpt lat="49.61022" lon="4.95552">
        <ele>176.06</ele>
        <time>2019-03-17T09:33:26Z</time>
      </trkpt>
      <trkpt lat="49.61003" lon="4.95545">
        <ele>177.5</ele>
        <time>2019-03-17T09:33:43Z</time>
      </trkpt>
      <trkpt lat="49.60986" lon="4.95541">
        <ele>175.58</ele>
        <time>2019-03-17T09:34:00Z</time>
      </trkpt>
      <trkpt lat="49.60976" lon="4.95531">
        <ele>177.02</ele>
        <time>2019-03-17T09:34:10Z</time>
      </trkpt>
      <trkpt lat="49.60974" lon="4.9553">
        <ele>177.02</ele>
        <time>2019-03-17T09:34:12Z</time>
      </trkpt>
      <trkpt lat="49.6095" lon="4.95509">
        <ele>177.5</ele>
        <time>2019-03-17T09:34:31Z</time>
      </trkpt>
      <trkpt lat="49.60933" lon="4.95503">
        <ele>175.58</ele>
        <time>2019-03-17T09:34:47Z</time>
      </trkpt>
      <trkpt lat="49.60917" lon="4.95499">
        <ele>174.62</ele>
        <time>2019-03-17T09:35:03Z</time>
      </trkpt>
      <trkpt lat="49.60897" lon="4.95488">
        <ele>175.58</ele>
        <time>2019-03-17T09:35:20Z</time>
      </trkpt>
      <trkpt lat="49.60874" lon="4.95485">
        <ele>177.5</ele>
        <time>2019-03-17T09:35:39Z</time>
      </trkpt>
      <trkpt lat="49.60863" lon="4.95482">
        <ele>176.54</ele>
        <time>2019-03-17T09:35:50Z</time>
      </trkpt>
      <trkpt lat="49.6086" lon="4.95476">
        <ele>176.54</ele>
        <time>2019-03-17T09:35:54Z</time>
      </trkpt>
      <trkpt lat="49.60846" lon="4.95454">
        <ele>177.5</ele>
        <time>2019-03-17T09:36:10Z</time>
      </trkpt>
      <trkpt lat="49.60831" lon="4.95444">
        <ele>175.1</ele>
        <time>2019-03-17T09:36:29Z</time>
      </trkpt>
      <trkpt lat="49.60814" lon="4.95437">
        <ele>174.14</ele>
        <time>2019-03-17T09:36:46Z</time>
      </trkpt>
      <trkpt lat="49.60799" lon="4.9543">
        <ele>174.14</ele>
        <time>2019-03-17T09:37:01Z</time>
      </trkpt>
      <trkpt lat="49.60792" lon="4.95423">
        <ele>177.02</ele>
        <time>2019-03-17T09:37:05Z</time>
      </trkpt>
      <trkpt lat="49.60767" lon="4.9541">
        <ele>182.79</ele>
        <time>2019-03-17T09:37:23Z</time>
      </trkpt>
      <trkpt lat="49.60747" lon="4.95409">
        <ele>184.23</ele>
        <time>2019-03-17T09:37:40Z</time>
      </trkpt>
      <trkpt lat="49.60725" lon="4.95416">
        <ele>188.08</ele>
        <time>2019-03-17T09:37:58Z</time>
      </trkpt>
      <trkpt lat="49.607" lon="4.95421">
        <ele>192.88</ele>
        <time>2019-03-17T09:38:18Z</time>
      </trkpt>
      <trkpt lat="49.60682" lon="4.95425">
        <ele>192.88</ele>
        <time>2019-03-17T09:38:36Z</time>
      </trkpt>
      <trkpt lat="49.60664" lon="4.95432">
        <ele>191.92</ele>
        <time>2019-03-17T09:38:54Z</time>
      </trkpt>
      <trkpt lat="49.60642" lon="4.95438">
        <ele>191.44</ele>
        <time>2019-03-17T09:39:13Z</time>
      </trkpt>
      <trkpt lat="49.6064" lon="4.95439">
        <ele>191.44</ele>
        <time>2019-03-17T09:39:15Z</time>
      </trkpt>
      <trkpt lat="49.60637" lon="4.9544">
        <ele>190.96</ele>
        <time>2019-03-17T09:39:18Z</time>
      </trkpt>
      <trkpt lat="49.60625" lon="4.95442">
        <ele>190.96</ele>
        <time>2019-03-17T09:39:29Z</time>
      </trkpt>
      <trkpt lat="49.60619" lon="4.95449">
        <ele>191.44</ele>
        <time>2019-03-17T09:39:36Z</time>
      </trkpt>
      <trkpt lat="49.606" lon="4.9545">
        <ele>189.04</ele>
        <time>2019-03-17T09:39:54Z</time>
      </trkpt>
      <trkpt lat="49.6058" lon="4.9545">
        <ele>188.56</ele>
        <time>2019-03-17T09:40:11Z</time>
      </trkpt>
      <trkpt lat="49.60561" lon="4.95451">
        <ele>190</ele>
        <time>2019-03-17T09:40:27Z</time>
      </trkpt>
      <trkpt lat="49.60546" lon="4.95453">
        <ele>192.88</ele>
        <time>2019-03-17T09:40:43Z</time>
      </trkpt>
      <trkpt lat="49.60538" lon="4.95456">
        <ele>196.73</ele>
        <time>2019-03-17T09:41:03Z</time>
      </trkpt>
      <trkpt lat="49.60531" lon="4.95446">
        <ele>199.61</ele>
        <time>2019-03-17T09:41:18Z</time>
      </trkpt>
      <trkpt lat="49.60529" lon="4.95435">
        <ele>199.61</ele>
        <time>2019-03-17T09:41:34Z</time>
      </trkpt>
      <trkpt lat="49.6053" lon="4.95432">
        <ele>198.17</ele>
        <time>2019-03-17T09:41:55Z</time>
      </trkpt>
      <trkpt lat="49.60531" lon="4.9543">
        <ele>196.73</ele>
        <time>2019-03-17T09:42:15Z</time>
      </trkpt>
      <trkpt lat="49.60532" lon="4.95429">
        <ele>196.25</ele>
        <time>2019-03-17T09:42:40Z</time>
      </trkpt>
      <trkpt lat="49.60532" lon="4.95425">
        <ele>196.73</ele>
        <time>2019-03-17T09:42:54Z</time>
      </trkpt>
      <trkpt lat="49.60533" lon="4.95426">
        <ele>197.69</ele>
        <time>2019-03-17T09:43:18Z</time>
      </trkpt>
      <trkpt lat="49.60533" lon="4.95426">
        <ele>197.69</ele>
        <time>2019-03-17T09:43:29Z</time>
      </trkpt>
      <trkpt lat="49.60523" lon="4.95405">
        <ele>200.57</ele>
        <time>2019-03-17T09:43:45Z</time>
      </trkpt>
      <trkpt lat="49.60516" lon="4.95388">
        <ele>201.53</ele>
        <time>2019-03-17T09:44:01Z</time>
      </trkpt>
      <trkpt lat="49.60507" lon="4.95363">
        <ele>202.49</ele>
        <time>2019-03-17T09:44:19Z</time>
      </trkpt>
      <trkpt lat="49.60497" lon="4.95338">
        <ele>205.86</ele>
        <time>2019-03-17T09:44:35Z</time>
      </trkpt>
      <trkpt lat="49.60486" lon="4.95314">
        <ele>208.26</ele>
        <time>2019-03-17T09:44:53Z</time>
      </trkpt>
      <trkpt lat="49.60472" lon="4.95289">
        <ele>211.63</ele>
        <time>2019-03-17T09:45:13Z</time>
      </trkpt>
      <trkpt lat="49.6046" lon="4.95272">
        <ele>214.51</ele>
        <time>2019-03-17T09:45:29Z</time>
      </trkpt>
      <trkpt lat="49.60451" lon="4.95262">
        <ele>216.43</ele>
        <time>2019-03-17T09:45:40Z</time>
      </trkpt>
      <trkpt lat="49.60441" lon="4.95246">
        <ele>216.91</ele>
        <time>2019-03-17T09:45:58Z</time>
      </trkpt>
      <trkpt lat="49.60428" lon="4.95227">
        <ele>219.8</ele>
        <time>2019-03-17T09:46:15Z</time>
      </trkpt>
      <trkpt lat="49.60417" lon="4.9521">
        <ele>223.64</ele>
        <time>2019-03-17T09:46:32Z</time>
      </trkpt>
      <trkpt lat="49.60406" lon="4.9519">
        <ele>225.09</ele>
        <time>2019-03-17T09:46:49Z</time>
      </trkpt>
      <trkpt lat="49.60397" lon="4.9517">
        <ele>227.49</ele>
        <time>2019-03-17T09:47:07Z</time>
      </trkpt>
      <trkpt lat="49.60397" lon="4.95168">
        <ele>227.49</ele>
        <time>2019-03-17T09:47:08Z</time>
      </trkpt>
      <trkpt lat="49.6039" lon="4.95141">
        <ele>228.45</ele>
        <time>2019-03-17T09:47:27Z</time>
      </trkpt>
      <trkpt lat="49.60385" lon="4.95113">
        <ele>231.33</ele>
        <time>2019-03-17T09:47:46Z</time>
      </trkpt>
      <trkpt lat="49.60381" lon="4.95085">
        <ele>233.74</ele>
        <time>2019-03-17T09:48:05Z</time>
      </trkpt>
      <trkpt lat="49.60378" lon="4.95059">
        <ele>234.7</ele>
        <time>2019-03-17T09:48:22Z</time>
      </trkpt>
      <trkpt lat="49.60373" lon="4.95032">
        <ele>237.1</ele>
        <time>2019-03-17T09:48:42Z</time>
      </trkpt>
      <trkpt lat="49.6037" lon="4.95006">
        <ele>236.62</ele>
        <time>2019-03-17T09:48:59Z</time>
      </trkpt>
      <trkpt lat="49.60368" lon="4.94992">
        <ele>238.54</ele>
        <time>2019-03-17T09:49:13Z</time>
      </trkpt>
      <trkpt lat="49.60364" lon="4.94965">
        <ele>241.43</ele>
        <time>2019-03-17T09:49:32Z</time>
      </trkpt>
      <trkpt lat="49.6036" lon="4.94942">
        <ele>242.87</ele>
        <time>2019-03-17T09:49:47Z</time>
      </trkpt>
      <trkpt lat="49.60356" lon="4.94912">
        <ele>244.79</ele>
        <time>2019-03-17T09:50:05Z</time>
      </trkpt>
      <trkpt lat="49.60351" lon="4.94885">
        <ele>247.68</ele>
        <time>2019-03-17T09:50:22Z</time>
      </trkpt>
      <trkpt lat="49.60345" lon="4.94859">
        <ele>249.12</ele>
        <time>2019-03-17T09:50:40Z</time>
      </trkpt>
      <trkpt lat="49.60338" lon="4.94838">
        <ele>248.64</ele>
        <time>2019-03-17T09:50:56Z</time>
      </trkpt>
      <trkpt lat="49.60334" lon="4.94822">
        <ele>249.12</ele>
        <time>2019-03-17T09:51:07Z</time>
      </trkpt>
      <trkpt lat="49.60327" lon="4.94798">
        <ele>251.52</ele>
        <time>2019-03-17T09:51:25Z</time>
      </trkpt>
      <trkpt lat="49.6032" lon="4.94773">
        <ele>253.44</ele>
        <time>2019-03-17T09:51:42Z</time>
      </trkpt>
      <trkpt lat="49.60314" lon="4.94747">
        <ele>254.89</ele>
        <time>2019-03-17T09:51:57Z</time>
      </trkpt>
      <trkpt lat="49.60309" lon="4.9472">
        <ele>256.81</ele>
        <time>2019-03-17T09:52:14Z</time>
      </trkpt>
      <trkpt lat="49.60309" lon="4.94717">
        <ele>257.29</ele>
        <time>2019-03-17T09:52:16Z</time>
      </trkpt>
      <trkpt lat="49.60301" lon="4.94688">
        <ele>262.1</ele>
        <time>2019-03-17T09:52:34Z</time>
      </trkpt>
      <trkpt lat="49.60293" lon="4.94654">
        <ele>265.46</ele>
        <time>2019-03-17T09:52:53Z</time>
      </trkpt>
      <trkpt lat="49.60285" lon="4.94622">
        <ele>269.31</ele>
        <time>2019-03-17T09:53:12Z</time>
      </trkpt>
      <trkpt lat="49.60277" lon="4.94593">
        <ele>272.67</ele>
        <time>2019-03-17T09:53:30Z</time>
      </trkpt>
      <trkpt lat="49.60268" lon="4.94563">
        <ele>274.59</ele>
        <time>2019-03-17T09:53:49Z</time>
      </trkpt>
      <trkpt lat="49.60265" lon="4.94528">
        <ele>274.59</ele>
        <time>2019-03-17T09:54:07Z</time>
      </trkpt>
      <trkpt lat="49.60267" lon="4.94505">
        <ele>275.56</ele>
        <time>2019-03-17T09:54:25Z</time>
      </trkpt>
      <trkpt lat="49.60268" lon="4.94504">
        <ele>275.07</ele>
        <time>2019-03-17T09:54:28Z</time>
      </trkpt>
      <trkpt lat="49.60292" lon="4.94487">
        <ele>276.52</ele>
        <time>2019-03-17T09:54:49Z</time>
      </trkpt>
      <trkpt lat="49.60313" lon="4.94477">
        <ele>278.44</ele>
        <time>2019-03-17T09:55:07Z</time>
      </trkpt>
      <trkpt lat="49.60334" lon="4.94467">
        <ele>279.4</ele>
        <time>2019-03-17T09:55:26Z</time>
      </trkpt>
      <trkpt lat="49.60358" lon="4.94454">
        <ele>281.8</ele>
        <time>2019-03-17T09:55:47Z</time>
      </trkpt>
      <trkpt lat="49.60376" lon="4.94443">
        <ele>282.28</ele>
        <time>2019-03-17T09:56:05Z</time>
      </trkpt>
      <trkpt lat="49.60395" lon="4.94426">
        <ele>283.25</ele>
        <time>2019-03-17T09:56:23Z</time>
      </trkpt>
      <trkpt lat="49.60412" lon="4.94402">
        <ele>282.77</ele>
        <time>2019-03-17T09:56:41Z</time>
      </trkpt>
      <trkpt lat="49.60428" lon="4.94374">
        <ele>283.25</ele>
        <time>2019-03-17T09:57:01Z</time>
      </trkpt>
      <trkpt lat="49.60445" lon="4.94344">
        <ele>284.21</ele>
        <time>2019-03-17T09:57:22Z</time>
      </trkpt>
      <trkpt lat="49.60461" lon="4.94314">
        <ele>283.25</ele>
        <time>2019-03-17T09:57:44Z</time>
      </trkpt>
      <trkpt lat="49.60479" lon="4.94286">
        <ele>286.61</ele>
        <time>2019-03-17T09:58:05Z</time>
      </trkpt>
      <trkpt lat="49.60494" lon="4.94258">
        <ele>288.53</ele>
        <time>2019-03-17T09:58:24Z</time>
      </trkpt>
      <trkpt lat="49.60509" lon="4.9423">
        <ele>291.9</ele>
        <time>2019-03-17T09:58:44Z</time>
      </trkpt>
      <trkpt lat="49.60521" lon="4.94203">
        <ele>291.9</ele>
        <time>2019-03-17T09:59:02Z</time>
      </trkpt>
      <trkpt lat="49.60533" lon="4.94173">
        <ele>293.34</ele>
        <time>2019-03-17T09:59:21Z</time>
      </trkpt>
      <trkpt lat="49.60545" lon="4.94144">
        <ele>293.82</ele>
        <time>2019-03-17T09:59:40Z</time>
      </trkpt>
      <trkpt lat="49.60556" lon="4.94115">
        <ele>295.74</ele>
        <time>2019-03-17T09:59:59Z</time>
      </trkpt>
      <trkpt lat="49.60568" lon="4.94086">
        <ele>296.7</ele>
        <time>2019-03-17T10:00:19Z</time>
      </trkpt>
      <trkpt lat="49.60577" lon="4.94065">
        <ele>296.7</ele>
        <time>2019-03-17T10:00:35Z</time>
      </trkpt>
      <trkpt lat="49.60587" lon="4.94038">
        <ele>299.59</ele>
        <time>2019-03-17T10:00:54Z</time>
      </trkpt>
      <trkpt lat="49.60598" lon="4.94009">
        <ele>300.07</ele>
        <time>2019-03-17T10:01:13Z</time>
      </trkpt>
      <trkpt lat="49.6061" lon="4.93981">
        <ele>301.99</ele>
        <time>2019-03-17T10:01:32Z</time>
      </trkpt>
      <trkpt lat="49.60616" lon="4.93949">
        <ele>305.36</ele>
        <time>2019-03-17T10:01:52Z</time>
      </trkpt>
      <trkpt lat="49.60624" lon="4.93916">
        <ele>306.8</ele>
        <time>2019-03-17T10:02:12Z</time>
      </trkpt>
      <trkpt lat="49.60632" lon="4.93878">
        <ele>306.8</ele>
        <time>2019-03-17T10:02:34Z</time>
      </trkpt>
      <trkpt lat="49.60639" lon="4.93841">
        <ele>305.36</ele>
        <time>2019-03-17T10:02:56Z</time>
      </trkpt>
      <trkpt lat="49.60644" lon="4.93811">
        <ele>304.39</ele>
        <time>2019-03-17T10:03:13Z</time>
      </trkpt>
      <trkpt lat="49.60643" lon="4.93808">
        <ele>304.39</ele>
        <time>2019-03-17T10:03:15Z</time>
      </trkpt>
      <trkpt lat="49.60647" lon="4.9378">
        <ele>303.43</ele>
        <time>2019-03-17T10:03:32Z</time>
      </trkpt>
      <trkpt lat="49.60652" lon="4.93747">
        <ele>302.47</ele>
        <time>2019-03-17T10:03:51Z</time>
      </trkpt>
      <trkpt lat="49.60654" lon="4.93717">
        <ele>297.18</ele>
        <time>2019-03-17T10:04:08Z</time>
      </trkpt>
      <trkpt lat="49.60655" lon="4.93683">
        <ele>295.26</ele>
        <time>2019-03-17T10:04:29Z</time>
      </trkpt>
      <trkpt lat="49.60656" lon="4.93653">
        <ele>297.18</ele>
        <time>2019-03-17T10:04:49Z</time>
      </trkpt>
      <trkpt lat="49.60658" lon="4.93642">
        <ele>296.7</ele>
        <time>2019-03-17T10:04:55Z</time>
      </trkpt>
      <trkpt lat="49.60662" lon="4.93637">
        <ele>296.22</ele>
        <time>2019-03-17T10:04:59Z</time>
      </trkpt>
      <trkpt lat="49.60666" lon="4.93636">
        <ele>295.26</ele>
        <time>2019-03-17T10:05:03Z</time>
      </trkpt>
      <trkpt lat="49.60669" lon="4.93643">
        <ele>295.26</ele>
        <time>2019-03-17T10:05:08Z</time>
      </trkpt>
      <trkpt lat="49.60677" lon="4.93651">
        <ele>293.82</ele>
        <time>2019-03-17T10:05:16Z</time>
      </trkpt>
      <trkpt lat="49.60683" lon="4.93662">
        <ele>292.86</ele>
        <time>2019-03-17T10:05:32Z</time>
      </trkpt>
      <trkpt lat="49.607" lon="4.93687">
        <ele>292.86</ele>
        <time>2019-03-17T10:05:51Z</time>
      </trkpt>
      <trkpt lat="49.6072" lon="4.93714">
        <ele>293.34</ele>
        <time>2019-03-17T10:06:13Z</time>
      </trkpt>
      <trkpt lat="49.60724" lon="4.93719">
        <ele>293.34</ele>
        <time>2019-03-17T10:06:18Z</time>
      </trkpt>
      <trkpt lat="49.60731" lon="4.9373">
        <ele>293.82</ele>
        <time>2019-03-17T10:06:31Z</time>
      </trkpt>
      <trkpt lat="49.60747" lon="4.93755">
        <ele>291.9</ele>
        <time>2019-03-17T10:06:50Z</time>
      </trkpt>
      <trkpt lat="49.60758" lon="4.93769">
        <ele>290.94</ele>
        <time>2019-03-17T10:07:06Z</time>
      </trkpt>
      <trkpt lat="49.60773" lon="4.93793">
        <ele>292.38</ele>
        <time>2019-03-17T10:07:24Z</time>
      </trkpt>
      <trkpt lat="49.60793" lon="4.93825">
        <ele>294.3</ele>
        <time>2019-03-17T10:07:47Z</time>
      </trkpt>
      <trkpt lat="49.60811" lon="4.93863">
        <ele>294.78</ele>
        <time>2019-03-17T10:08:12Z</time>
      </trkpt>
      <trkpt lat="49.60825" lon="4.93892">
        <ele>294.3</ele>
        <time>2019-03-17T10:08:33Z</time>
      </trkpt>
      <trkpt lat="49.6084" lon="4.93923">
        <ele>294.78</ele>
        <time>2019-03-17T10:08:53Z</time>
      </trkpt>
      <trkpt lat="49.60858" lon="4.93958">
        <ele>292.86</ele>
        <time>2019-03-17T10:09:17Z</time>
      </trkpt>
      <trkpt lat="49.60874" lon="4.93994">
        <ele>294.78</ele>
        <time>2019-03-17T10:09:41Z</time>
      </trkpt>
      <trkpt lat="49.60888" lon="4.94027">
        <ele>294.3</ele>
        <time>2019-03-17T10:10:01Z</time>
      </trkpt>
      <trkpt lat="49.60901" lon="4.94062">
        <ele>289.97</ele>
        <time>2019-03-17T10:10:24Z</time>
      </trkpt>
      <trkpt lat="49.60914" lon="4.94091">
        <ele>288.53</ele>
        <time>2019-03-17T10:10:44Z</time>
      </trkpt>
      <trkpt lat="49.60926" lon="4.94123">
        <ele>286.13</ele>
        <time>2019-03-17T10:11:05Z</time>
      </trkpt>
      <trkpt lat="49.60939" lon="4.94146">
        <ele>285.17</ele>
        <time>2019-03-17T10:11:22Z</time>
      </trkpt>
      <trkpt lat="49.60953" lon="4.9418">
        <ele>287.09</ele>
        <time>2019-03-17T10:11:43Z</time>
      </trkpt>
      <trkpt lat="49.60966" lon="4.94211">
        <ele>285.65</ele>
        <time>2019-03-17T10:12:03Z</time>
      </trkpt>
      <trkpt lat="49.60976" lon="4.94238">
        <ele>285.65</ele>
        <time>2019-03-17T10:12:21Z</time>
      </trkpt>
      <trkpt lat="49.6099" lon="4.94275">
        <ele>283.73</ele>
        <time>2019-03-17T10:12:44Z</time>
      </trkpt>
      <trkpt lat="49.61007" lon="4.94302">
        <ele>283.73</ele>
        <time>2019-03-17T10:13:06Z</time>
      </trkpt>
      <trkpt lat="49.61029" lon="4.94331">
        <ele>284.21</ele>
        <time>2019-03-17T10:13:29Z</time>
      </trkpt>
      <trkpt lat="49.6105" lon="4.94359">
        <ele>285.17</ele>
        <time>2019-03-17T10:13:51Z</time>
      </trkpt>
      <trkpt lat="49.61069" lon="4.94385">
        <ele>284.21</ele>
        <time>2019-03-17T10:14:13Z</time>
      </trkpt>
      <trkpt lat="49.61076" lon="4.94393">
        <ele>283.73</ele>
        <time>2019-03-17T10:14:21Z</time>
      </trkpt>
      <trkpt lat="49.61092" lon="4.94411">
        <ele>282.28</ele>
        <time>2019-03-17T10:14:39Z</time>
      </trkpt>
      <trkpt lat="49.61108" lon="4.9443">
        <ele>281.8</ele>
        <time>2019-03-17T10:14:56Z</time>
      </trkpt>
      <trkpt lat="49.61126" lon="4.94451">
        <ele>281.8</ele>
        <time>2019-03-17T10:15:13Z</time>
      </trkpt>
      <trkpt lat="49.61142" lon="4.94472">
        <ele>282.77</ele>
        <time>2019-03-17T10:15:33Z</time>
      </trkpt>
      <trkpt lat="49.61157" lon="4.94493">
        <ele>283.73</ele>
        <time>2019-03-17T10:15:51Z</time>
      </trkpt>
      <trkpt lat="49.61176" lon="4.94517">
        <ele>284.69</ele>
        <time>2019-03-17T10:16:11Z</time>
      </trkpt>
      <trkpt lat="49.61194" lon="4.94542">
        <ele>285.65</ele>
        <time>2019-03-17T10:16:31Z</time>
      </trkpt>
      <trkpt lat="49.61206" lon="4.9456">
        <ele>283.25</ele>
        <time>2019-03-17T10:16:47Z</time>
      </trkpt>
      <trkpt lat="49.61215" lon="4.94567">
        <ele>277</ele>
        <time>2019-03-17T10:16:58Z</time>
      </trkpt>
      <trkpt lat="49.61228" lon="4.94588">
        <ele>273.15</ele>
        <time>2019-03-17T10:17:15Z</time>
      </trkpt>
      <trkpt lat="49.61242" lon="4.94603">
        <ele>273.63</ele>
        <time>2019-03-17T10:17:31Z</time>
      </trkpt>
      <trkpt lat="49.61248" lon="4.94616">
        <ele>274.11</ele>
        <time>2019-03-17T10:17:45Z</time>
      </trkpt>
      <trkpt lat="49.61256" lon="4.94627">
        <ele>273.63</ele>
        <time>2019-03-17T10:17:59Z</time>
      </trkpt>
      <trkpt lat="49.6127" lon="4.94645">
        <ele>270.27</ele>
        <time>2019-03-17T10:18:16Z</time>
      </trkpt>
      <trkpt lat="49.61287" lon="4.94663">
        <ele>271.23</ele>
        <time>2019-03-17T10:18:31Z</time>
      </trkpt>
      <trkpt lat="49.61304" lon="4.94681">
        <ele>269.31</ele>
        <time>2019-03-17T10:18:46Z</time>
      </trkpt>
      <trkpt lat="49.61321" lon="4.94702">
        <ele>266.9</ele>
        <time>2019-03-17T10:19:03Z</time>
      </trkpt>
      <trkpt lat="49.6134" lon="4.94729">
        <ele>266.42</ele>
        <time>2019-03-17T10:19:22Z</time>
      </trkpt>
      <trkpt lat="49.61355" lon="4.94746">
        <ele>263.54</ele>
        <time>2019-03-17T10:19:39Z</time>
      </trkpt>
      <trkpt lat="49.61371" lon="4.94765">
        <ele>264.98</ele>
        <time>2019-03-17T10:19:56Z</time>
      </trkpt>
      <trkpt lat="49.61374" lon="4.94769">
        <ele>264.98</ele>
        <time>2019-03-17T10:19:59Z</time>
      </trkpt>
      <trkpt lat="49.61387" lon="4.94792">
        <ele>264.98</ele>
        <time>2019-03-17T10:20:17Z</time>
      </trkpt>
      <trkpt lat="49.61398" lon="4.94808">
        <ele>264.98</ele>
        <time>2019-03-17T10:20:32Z</time>
      </trkpt>
      <trkpt lat="49.61398" lon="4.94809">
        <ele>264.98</ele>
        <time>2019-03-17T10:20:33Z</time>
      </trkpt>
      <trkpt lat="49.61412" lon="4.94827">
        <ele>267.38</ele>
        <time>2019-03-17T10:20:50Z</time>
      </trkpt>
      <trkpt lat="49.61423" lon="4.94843">
        <ele>270.27</ele>
        <time>2019-03-17T10:21:06Z</time>
      </trkpt>
      <trkpt lat="49.61437" lon="4.9486">
        <ele>268.35</ele>
        <time>2019-03-17T10:21:24Z</time>
      </trkpt>
      <trkpt lat="49.61447" lon="4.94873">
        <ele>267.38</ele>
        <time>2019-03-17T10:21:39Z</time>
      </trkpt>
      <trkpt lat="49.61458" lon="4.94889">
        <ele>265.94</ele>
        <time>2019-03-17T10:21:53Z</time>
      </trkpt>
      <trkpt lat="49.61474" lon="4.94913">
        <ele>265.46</ele>
        <time>2019-03-17T10:22:09Z</time>
      </trkpt>
      <trkpt lat="49.61489" lon="4.94935">
        <ele>266.9</ele>
        <time>2019-03-17T10:22:26Z</time>
      </trkpt>
      <trkpt lat="49.61497" lon="4.94943">
        <ele>267.38</ele>
        <time>2019-03-17T10:22:38Z</time>
      </trkpt>
      <trkpt lat="49.61511" lon="4.94966">
        <ele>264.02</ele>
        <time>2019-03-17T10:22:56Z</time>
      </trkpt>
      <trkpt lat="49.61526" lon="4.94986">
        <ele>260.17</ele>
        <time>2019-03-17T10:23:11Z</time>
      </trkpt>
      <trkpt lat="49.6154" lon="4.95011">
        <ele>254.41</ele>
        <time>2019-03-17T10:23:29Z</time>
      </trkpt>
      <trkpt lat="49.61546" lon="4.95028">
        <ele>252</ele>
        <time>2019-03-17T10:23:43Z</time>
      </trkpt>
      <trkpt lat="49.61554" lon="4.95049">
        <ele>250.08</ele>
        <time>2019-03-17T10:23:57Z</time>
      </trkpt>
      <trkpt lat="49.61556" lon="4.95055">
        <ele>249.12</ele>
        <time>2019-03-17T10:24:01Z</time>
      </trkpt>
      <trkpt lat="49.61567" lon="4.95081">
        <ele>247.2</ele>
        <time>2019-03-17T10:24:19Z</time>
      </trkpt>
      <trkpt lat="49.61574" lon="4.95103">
        <ele>241.43</ele>
        <time>2019-03-17T10:24:36Z</time>
      </trkpt>
      <trkpt lat="49.61579" lon="4.95122">
        <ele>243.35</ele>
        <time>2019-03-17T10:24:52Z</time>
      </trkpt>
      <trkpt lat="49.61585" lon="4.95142">
        <ele>243.83</ele>
        <time>2019-03-17T10:25:05Z</time>
      </trkpt>
      <trkpt lat="49.6159" lon="4.95168">
        <ele>245.75</ele>
        <time>2019-03-17T10:25:20Z</time>
      </trkpt>
      <trkpt lat="49.6159" lon="4.95172">
        <ele>245.75</ele>
        <time>2019-03-17T10:25:22Z</time>
      </trkpt>
      <trkpt lat="49.61595" lon="4.95187">
        <ele>247.68</ele>
        <time>2019-03-17T10:25:32Z</time>
      </trkpt>
      <trkpt lat="49.61597" lon="4.95194">
        <ele>249.12</ele>
        <time>2019-03-17T10:25:37Z</time>
      </trkpt>
      <trkpt lat="49.61603" lon="4.95225">
        <ele>250.08</ele>
        <time>2019-03-17T10:25:55Z</time>
      </trkpt>
      <trkpt lat="49.61609" lon="4.95256">
        <ele>249.12</ele>
        <time>2019-03-17T10:26:14Z</time>
      </trkpt>
      <trkpt lat="49.61616" lon="4.95282">
        <ele>249.12</ele>
        <time>2019-03-17T10:26:31Z</time>
      </trkpt>
      <trkpt lat="49.61625" lon="4.95312">
        <ele>248.64</ele>
        <time>2019-03-17T10:26:49Z</time>
      </trkpt>
      <trkpt lat="49.6163" lon="4.95334">
        <ele>247.2</ele>
        <time>2019-03-17T10:27:04Z</time>
      </trkpt>
      <trkpt lat="49.61632" lon="4.95354">
        <ele>243.35</ele>
        <time>2019-03-17T10:27:18Z</time>
      </trkpt>
      <trkpt lat="49.61636" lon="4.95381">
        <ele>243.83</ele>
        <time>2019-03-17T10:27:35Z</time>
      </trkpt>
      <trkpt lat="49.61636" lon="4.95407">
        <ele>242.87</ele>
        <time>2019-03-17T10:27:50Z</time>
      </trkpt>
      <trkpt lat="49.61636" lon="4.95439">
        <ele>241.43</ele>
        <time>2019-03-17T10:28:09Z</time>
      </trkpt>
      <trkpt lat="49.61636" lon="4.95462">
        <ele>239.51</ele>
        <time>2019-03-17T10:28:25Z</time>
      </trkpt>
      <trkpt lat="49.61637" lon="4.9549">
        <ele>238.06</ele>
        <time>2019-03-17T10:28:42Z</time>
      </trkpt>
      <trkpt lat="49.61636" lon="4.95522">
        <ele>237.1</ele>
        <time>2019-03-17T10:29:02Z</time>
      </trkpt>
      <trkpt lat="49.61632" lon="4.95542">
        <ele>236.14</ele>
        <time>2019-03-17T10:29:16Z</time>
      </trkpt>
      <trkpt lat="49.6163" lon="4.95561">
        <ele>234.7</ele>
        <time>2019-03-17T10:29:28Z</time>
      </trkpt>
      <trkpt lat="49.61631" lon="4.95567">
        <ele>234.22</ele>
        <time>2019-03-17T10:29:31Z</time>
      </trkpt>
      <trkpt lat="49.61629" lon="4.95595">
        <ele>232.3</ele>
        <time>2019-03-17T10:29:50Z</time>
      </trkpt>
      <trkpt lat="49.61629" lon="4.95618">
        <ele>232.3</ele>
        <time>2019-03-17T10:30:07Z</time>
      </trkpt>
      <trkpt lat="49.61632" lon="4.95645">
        <ele>232.78</ele>
        <time>2019-03-17T10:30:24Z</time>
      </trkpt>
      <trkpt lat="49.61635" lon="4.95676">
        <ele>228.93</ele>
        <time>2019-03-17T10:30:44Z</time>
      </trkpt>
      <trkpt lat="49.61641" lon="4.95704">
        <ele>226.53</ele>
        <time>2019-03-17T10:31:03Z</time>
      </trkpt>
      <trkpt lat="49.6165" lon="4.95734">
        <ele>224.61</ele>
        <time>2019-03-17T10:31:22Z</time>
      </trkpt>
      <trkpt lat="49.61662" lon="4.9576">
        <ele>221.24</ele>
        <time>2019-03-17T10:31:42Z</time>
      </trkpt>
      <trkpt lat="49.61673" lon="4.95779">
        <ele>217.4</ele>
        <time>2019-03-17T10:31:59Z</time>
      </trkpt>
      <trkpt lat="49.61687" lon="4.95799">
        <ele>215.47</ele>
        <time>2019-03-17T10:32:17Z</time>
      </trkpt>
      <trkpt lat="49.61696" lon="4.95818">
        <ele>212.11</ele>
        <time>2019-03-17T10:32:36Z</time>
      </trkpt>
      <trkpt lat="49.61708" lon="4.95832">
        <ele>208.26</ele>
        <time>2019-03-17T10:32:54Z</time>
      </trkpt>
      <trkpt lat="49.61718" lon="4.95841">
        <ele>204.42</ele>
        <time>2019-03-17T10:33:08Z</time>
      </trkpt>
      <trkpt lat="49.6173" lon="4.95852">
        <ele>199.61</ele>
        <time>2019-03-17T10:33:25Z</time>
      </trkpt>
      <trkpt lat="49.61743" lon="4.95861">
        <ele>195.77</ele>
        <time>2019-03-17T10:33:42Z</time>
      </trkpt>
      <trkpt lat="49.61758" lon="4.95872">
        <ele>193.36</ele>
        <time>2019-03-17T10:33:59Z</time>
      </trkpt>
      <trkpt lat="49.6177" lon="4.95881">
        <ele>190.48</ele>
        <time>2019-03-17T10:34:14Z</time>
      </trkpt>
      <trkpt lat="49.61786" lon="4.9589">
        <ele>185.67</ele>
        <time>2019-03-17T10:34:33Z</time>
      </trkpt>
      <trkpt lat="49.61801" lon="4.95898">
        <ele>187.11</ele>
        <time>2019-03-17T10:34:51Z</time>
      </trkpt>
      <trkpt lat="49.61808" lon="4.95907">
        <ele>188.08</ele>
        <time>2019-03-17T10:35:04Z</time>
      </trkpt>
      <trkpt lat="49.61824" lon="4.95917">
        <ele>186.15</ele>
        <time>2019-03-17T10:35:19Z</time>
      </trkpt>
      <trkpt lat="49.61828" lon="4.9592">
        <ele>186.63</ele>
        <time>2019-03-17T10:35:23Z</time>
      </trkpt>
      <trkpt lat="49.61841" lon="4.95933">
        <ele>190.48</ele>
        <time>2019-03-17T10:35:38Z</time>
      </trkpt>
      <trkpt lat="49.61843" lon="4.95938">
        <ele>191.92</ele>
        <time>2019-03-17T10:35:52Z</time>
      </trkpt>
      <trkpt lat="49.61857" lon="4.95941">
        <ele>190</ele>
        <time>2019-03-17T10:36:09Z</time>
      </trkpt>
      <trkpt lat="49.61873" lon="4.95949">
        <ele>187.11</ele>
        <time>2019-03-17T10:36:25Z</time>
      </trkpt>
      <trkpt lat="49.61891" lon="4.95956">
        <ele>181.83</ele>
        <time>2019-03-17T10:36:41Z</time>
      </trkpt>
      <trkpt lat="49.61907" lon="4.95962">
        <ele>180.38</ele>
        <time>2019-03-17T10:36:57Z</time>
      </trkpt>
      <trkpt lat="49.61923" lon="4.95971">
        <ele>185.19</ele>
        <time>2019-03-17T10:37:11Z</time>
      </trkpt>
      <trkpt lat="49.61936" lon="4.95978">
        <ele>184.71</ele>
        <time>2019-03-17T10:37:28Z</time>
      </trkpt>
      <trkpt lat="49.6194" lon="4.95981">
        <ele>183.75</ele>
        <time>2019-03-17T10:37:41Z</time>
      </trkpt>
      <trkpt lat="49.61943" lon="4.95983">
        <ele>184.23</ele>
        <time>2019-03-17T10:37:56Z</time>
      </trkpt>
      <trkpt lat="49.6196" lon="4.95986">
        <ele>182.79</ele>
        <time>2019-03-17T10:38:13Z</time>
      </trkpt>
      <trkpt lat="49.6198" lon="4.95992">
        <ele>183.27</ele>
        <time>2019-03-17T10:38:29Z</time>
      </trkpt>
      <trkpt lat="49.62006" lon="4.95995">
        <ele>181.83</ele>
        <time>2019-03-17T10:38:50Z</time>
      </trkpt>
      <trkpt lat="49.62025" lon="4.96002">
        <ele>182.31</ele>
        <time>2019-03-17T10:39:06Z</time>
      </trkpt>
      <trkpt lat="49.62045" lon="4.96011">
        <ele>179.42</ele>
        <time>2019-03-17T10:39:22Z</time>
      </trkpt>
      <trkpt lat="49.62062" lon="4.9602">
        <ele>178.46</ele>
        <time>2019-03-17T10:39:39Z</time>
      </trkpt>
      <trkpt lat="49.62077" lon="4.96034">
        <ele>174.62</ele>
        <time>2019-03-17T10:39:55Z</time>
      </trkpt>
      <trkpt lat="49.62081" lon="4.96037">
        <ele>175.1</ele>
        <time>2019-03-17T10:39:59Z</time>
      </trkpt>
      <trkpt lat="49.62101" lon="4.96035">
        <ele>174.14</ele>
        <time>2019-03-17T10:40:18Z</time>
      </trkpt>
      <trkpt lat="49.62114" lon="4.96029">
        <ele>178.46</ele>
        <time>2019-03-17T10:40:30Z</time>
      </trkpt>
      <trkpt lat="49.6213" lon="4.96022">
        <ele>179.9</ele>
        <time>2019-03-17T10:40:45Z</time>
      </trkpt>
      <trkpt lat="49.62141" lon="4.9602">
        <ele>180.87</ele>
        <time>2019-03-17T10:40:57Z</time>
      </trkpt>
      <trkpt lat="49.62153" lon="4.96017">
        <ele>176.06</ele>
        <time>2019-03-17T10:41:12Z</time>
      </trkpt>
      <trkpt lat="49.6217" lon="4.96015">
        <ele>175.1</ele>
        <time>2019-03-17T10:41:28Z</time>
      </trkpt>
      <trkpt lat="49.62185" lon="4.96014">
        <ele>173.17</ele>
        <time>2019-03-17T10:41:44Z</time>
      </trkpt>
      <trkpt lat="49.62201" lon="4.96015">
        <ele>171.25</ele>
        <time>2019-03-17T10:41:59Z</time>
      </trkpt>
      <trkpt lat="49.6221" lon="4.96014">
        <ele>172.21</ele>
        <time>2019-03-17T10:42:04Z</time>
      </trkpt>
      <trkpt lat="49.62215" lon="4.96009">
        <ele>172.69</ele>
        <time>2019-03-17T10:42:08Z</time>
      </trkpt>
      <trkpt lat="49.62235" lon="4.95982">
        <ele>172.69</ele>
        <time>2019-03-17T10:42:30Z</time>
      </trkpt>
      <trkpt lat="49.62249" lon="4.9596">
        <ele>170.29</ele>
        <time>2019-03-17T10:42:49Z</time>
      </trkpt>
      <trkpt lat="49.62256" lon="4.95947">
        <ele>165</ele>
        <time>2019-03-17T10:43:01Z</time>
      </trkpt>
      <trkpt lat="49.62271" lon="4.95926">
        <ele>164.52</ele>
        <time>2019-03-17T10:43:18Z</time>
      </trkpt>
      <trkpt lat="49.62289" lon="4.95906">
        <ele>169.33</ele>
        <time>2019-03-17T10:43:35Z</time>
      </trkpt>
      <trkpt lat="49.62296" lon="4.95896">
        <ele>170.29</ele>
        <time>2019-03-17T10:43:54Z</time>
      </trkpt>
      <trkpt lat="49.62298" lon="4.95893">
        <ele>171.73</ele>
        <time>2019-03-17T10:44:13Z</time>
      </trkpt>
      <trkpt lat="49.62299" lon="4.95893">
        <ele>171.25</ele>
        <time>2019-03-17T10:44:35Z</time>
      </trkpt>
      <trkpt lat="49.62299" lon="4.95893">
        <ele>170.29</ele>
        <time>2019-03-17T10:44:51Z</time>
      </trkpt>
      <trkpt lat="49.623" lon="4.95893">
        <ele>170.77</ele>
        <time>2019-03-17T10:45:07Z</time>
      </trkpt>
      <trkpt lat="49.623" lon="4.95893">
        <ele>171.73</ele>
        <time>2019-03-17T10:45:26Z</time>
      </trkpt>
      <trkpt lat="49.62301" lon="4.95893">
        <ele>170.77</ele>
        <time>2019-03-17T10:45:46Z</time>
      </trkpt>
      <trkpt lat="49.62301" lon="4.95893">
        <ele>170.29</ele>
        <time>2019-03-17T10:46:03Z</time>
      </trkpt>
      <trkpt lat="49.623" lon="4.95894">
        <ele>169.81</ele>
        <time>2019-03-17T10:46:20Z</time>
      </trkpt>
      <trkpt lat="49.62301" lon="4.95894">
        <ele>168.85</ele>
        <time>2019-03-17T10:46:41Z</time>
      </trkpt>
      <trkpt lat="49.62303" lon="4.95895">
        <ele>168.85</ele>
        <time>2019-03-17T10:46:47Z</time>
      </trkpt>
      <trkpt lat="49.62313" lon="4.95891">
        <ele>167.89</ele>
        <time>2019-03-17T10:46:58Z</time>
      </trkpt>
      <trkpt lat="49.6233" lon="4.95881">
        <ele>163.56</ele>
        <time>2019-03-17T10:47:15Z</time>
      </trkpt>
      <trkpt lat="49.62338" lon="4.95876">
        <ele>162.12</ele>
        <time>2019-03-17T10:47:27Z</time>
      </trkpt>
      <trkpt lat="49.62323" lon="4.95879">
        <ele>164.04</ele>
        <time>2019-03-17T10:47:43Z</time>
      </trkpt>
      <trkpt lat="49.62299" lon="4.9589">
        <ele>165.48</ele>
        <time>2019-03-17T10:48:03Z</time>
      </trkpt>
      <trkpt lat="49.62296" lon="4.95891">
        <ele>165.96</ele>
        <time>2019-03-17T10:48:19Z</time>
      </trkpt>
      <trkpt lat="49.62298" lon="4.95891">
        <ele>166.45</ele>
        <time>2019-03-17T10:48:22Z</time>
      </trkpt>
      <trkpt lat="49.62303" lon="4.95891">
        <ele>167.41</ele>
        <time>2019-03-17T10:48:27Z</time>
      </trkpt>
      <trkpt lat="49.62318" lon="4.95885">
        <ele>167.41</ele>
        <time>2019-03-17T10:48:41Z</time>
      </trkpt>
      <trkpt lat="49.62332" lon="4.95878">
        <ele>163.56</ele>
        <time>2019-03-17T10:48:56Z</time>
      </trkpt>
      <trkpt lat="49.6234" lon="4.95865">
        <ele>161.16</ele>
        <time>2019-03-17T10:49:09Z</time>
      </trkpt>
      <trkpt lat="49.62343" lon="4.95854">
        <ele>162.12</ele>
        <time>2019-03-17T10:49:16Z</time>
      </trkpt>
      <trkpt lat="49.62352" lon="4.95829">
        <ele>166.93</ele>
        <time>2019-03-17T10:49:32Z</time>
      </trkpt>
      <trkpt lat="49.62358" lon="4.95795">
        <ele>172.21</ele>
        <time>2019-03-17T10:49:50Z</time>
      </trkpt>
      <trkpt lat="49.62361" lon="4.95774">
        <ele>176.06</ele>
        <time>2019-03-17T10:50:03Z</time>
      </trkpt>
      <trkpt lat="49.6236" lon="4.95761">
        <ele>174.62</ele>
        <time>2019-03-17T10:50:14Z</time>
      </trkpt>
      <trkpt lat="49.62359" lon="4.95758">
        <ele>174.62</ele>
        <time>2019-03-17T10:50:16Z</time>
      </trkpt>
      <trkpt lat="49.62355" lon="4.9573">
        <ele>176.54</ele>
        <time>2019-03-17T10:50:33Z</time>
      </trkpt>
      <trkpt lat="49.62355" lon="4.95703">
        <ele>177.5</ele>
        <time>2019-03-17T10:50:48Z</time>
      </trkpt>
      <trkpt lat="49.62355" lon="4.95672">
        <ele>182.31</ele>
        <time>2019-03-17T10:51:07Z</time>
      </trkpt>
      <trkpt lat="49.62359" lon="4.95641">
        <ele>185.19</ele>
        <time>2019-03-17T10:51:27Z</time>
      </trkpt>
      <trkpt lat="49.62362" lon="4.95617">
        <ele>187.59</ele>
        <time>2019-03-17T10:51:43Z</time>
      </trkpt>
      <trkpt lat="49.62371" lon="4.95593">
        <ele>189.04</ele>
        <time>2019-03-17T10:52:00Z</time>
      </trkpt>
      <trkpt lat="49.62379" lon="4.95575">
        <ele>191.44</ele>
        <time>2019-03-17T10:52:15Z</time>
      </trkpt>
      <trkpt lat="49.62387" lon="4.95549">
        <ele>193.84</ele>
        <time>2019-03-17T10:52:35Z</time>
      </trkpt>
      <trkpt lat="49.62391" lon="4.95524">
        <ele>194.32</ele>
        <time>2019-03-17T10:52:52Z</time>
      </trkpt>
      <trkpt lat="49.62396" lon="4.95497">
        <ele>195.77</ele>
        <time>2019-03-17T10:53:10Z</time>
      </trkpt>
      <trkpt lat="49.62402" lon="4.95475">
        <ele>195.77</ele>
        <time>2019-03-17T10:53:26Z</time>
      </trkpt>
      <trkpt lat="49.62404" lon="4.95465">
        <ele>196.25</ele>
        <time>2019-03-17T10:53:33Z</time>
      </trkpt>
      <trkpt lat="49.62411" lon="4.95446">
        <ele>198.65</ele>
        <time>2019-03-17T10:53:49Z</time>
      </trkpt>
      <trkpt lat="49.62413" lon="4.95421">
        <ele>199.61</ele>
        <time>2019-03-17T10:54:07Z</time>
      </trkpt>
      <trkpt lat="49.62417" lon="4.95394">
        <ele>200.57</ele>
        <time>2019-03-17T10:54:26Z</time>
      </trkpt>
      <trkpt lat="49.62421" lon="4.95367">
        <ele>202.98</ele>
        <time>2019-03-17T10:54:44Z</time>
      </trkpt>
      <trkpt lat="49.62424" lon="4.95344">
        <ele>205.38</ele>
        <time>2019-03-17T10:55:01Z</time>
      </trkpt>
      <trkpt lat="49.62428" lon="4.95326">
        <ele>207.78</ele>
        <time>2019-03-17T10:55:21Z</time>
      </trkpt>
      <trkpt lat="49.62438" lon="4.95301">
        <ele>210.67</ele>
        <time>2019-03-17T10:55:40Z</time>
      </trkpt>
      <trkpt lat="49.62448" lon="4.9528">
        <ele>214.51</ele>
        <time>2019-03-17T10:55:59Z</time>
      </trkpt>
      <trkpt lat="49.62456" lon="4.95265">
        <ele>217.4</ele>
        <time>2019-03-17T10:56:14Z</time>
      </trkpt>
      <trkpt lat="49.62467" lon="4.95246">
        <ele>219.8</ele>
        <time>2019-03-17T10:56:31Z</time>
      </trkpt>
      <trkpt lat="49.62478" lon="4.95226">
        <ele>223.16</ele>
        <time>2019-03-17T10:56:49Z</time>
      </trkpt>
      <trkpt lat="49.62489" lon="4.95211">
        <ele>224.61</ele>
        <time>2019-03-17T10:57:06Z</time>
      </trkpt>
      <trkpt lat="49.62495" lon="4.95205">
        <ele>225.09</ele>
        <time>2019-03-17T10:57:14Z</time>
      </trkpt>
      <trkpt lat="49.62515" lon="4.952">
        <ele>228.45</ele>
        <time>2019-03-17T10:57:34Z</time>
      </trkpt>
      <trkpt lat="49.62529" lon="4.95203">
        <ele>229.89</ele>
        <time>2019-03-17T10:57:50Z</time>
      </trkpt>
      <trkpt lat="49.62549" lon="4.95207">
        <ele>231.33</ele>
        <time>2019-03-17T10:58:09Z</time>
      </trkpt>
      <trkpt lat="49.62567" lon="4.95207">
        <ele>234.22</ele>
        <time>2019-03-17T10:58:27Z</time>
      </trkpt>
      <trkpt lat="49.62587" lon="4.95205">
        <ele>236.62</ele>
        <time>2019-03-17T10:58:47Z</time>
      </trkpt>
      <trkpt lat="49.62611" lon="4.95202">
        <ele>238.54</ele>
        <time>2019-03-17T10:59:09Z</time>
      </trkpt>
      <trkpt lat="49.62632" lon="4.95192">
        <ele>239.51</ele>
        <time>2019-03-17T10:59:30Z</time>
      </trkpt>
      <trkpt lat="49.62644" lon="4.95178">
        <ele>240.47</ele>
        <time>2019-03-17T10:59:47Z</time>
      </trkpt>
      <trkpt lat="49.62645" lon="4.95178">
        <ele>240.47</ele>
        <time>2019-03-17T10:59:48Z</time>
      </trkpt>
      <trkpt lat="49.62665" lon="4.95162">
        <ele>240.95</ele>
        <time>2019-03-17T11:00:09Z</time>
      </trkpt>
      <trkpt lat="49.62687" lon="4.9515">
        <ele>242.39</ele>
        <time>2019-03-17T11:00:31Z</time>
      </trkpt>
      <trkpt lat="49.62711" lon="4.95138">
        <ele>243.35</ele>
        <time>2019-03-17T11:00:53Z</time>
      </trkpt>
      <trkpt lat="49.62734" lon="4.95127">
        <ele>244.79</ele>
        <time>2019-03-17T11:01:14Z</time>
      </trkpt>
      <trkpt lat="49.62756" lon="4.95115">
        <ele>244.79</ele>
        <time>2019-03-17T11:01:36Z</time>
      </trkpt>
      <trkpt lat="49.62778" lon="4.95103">
        <ele>245.75</ele>
        <time>2019-03-17T11:01:57Z</time>
      </trkpt>
      <trkpt lat="49.62801" lon="4.9509">
        <ele>246.72</ele>
        <time>2019-03-17T11:02:19Z</time>
      </trkpt>
      <trkpt lat="49.62826" lon="4.95077">
        <ele>248.16</ele>
        <time>2019-03-17T11:02:43Z</time>
      </trkpt>
      <trkpt lat="49.62849" lon="4.95064">
        <ele>249.12</ele>
        <time>2019-03-17T11:03:06Z</time>
      </trkpt>
      <trkpt lat="49.62869" lon="4.95053">
        <ele>251.04</ele>
        <time>2019-03-17T11:03:26Z</time>
      </trkpt>
      <trkpt lat="49.62891" lon="4.95045">
        <ele>253.44</ele>
        <time>2019-03-17T11:03:46Z</time>
      </trkpt>
      <trkpt lat="49.62899" lon="4.95043">
        <ele>254.89</ele>
        <time>2019-03-17T11:03:56Z</time>
      </trkpt>
      <trkpt lat="49.62925" lon="4.95036">
        <ele>257.29</ele>
        <time>2019-03-17T11:04:20Z</time>
      </trkpt>
      <trkpt lat="49.6295" lon="4.95032">
        <ele>256.33</ele>
        <time>2019-03-17T11:04:42Z</time>
      </trkpt>
      <trkpt lat="49.62972" lon="4.95027">
        <ele>257.29</ele>
        <time>2019-03-17T11:05:03Z</time>
      </trkpt>
      <trkpt lat="49.62998" lon="4.95021">
        <ele>259.21</ele>
        <time>2019-03-17T11:05:26Z</time>
      </trkpt>
      <trkpt lat="49.63019" lon="4.95016">
        <ele>260.17</ele>
        <time>2019-03-17T11:05:45Z</time>
      </trkpt>
      <trkpt lat="49.63042" lon="4.95011">
        <ele>261.14</ele>
        <time>2019-03-17T11:06:06Z</time>
      </trkpt>
      <trkpt lat="49.63069" lon="4.95006">
        <ele>260.65</ele>
        <time>2019-03-17T11:06:30Z</time>
      </trkpt>
      <trkpt lat="49.6309" lon="4.95">
        <ele>261.14</ele>
        <time>2019-03-17T11:06:52Z</time>
      </trkpt>
      <trkpt lat="49.63107" lon="4.94992">
        <ele>259.21</ele>
        <time>2019-03-17T11:07:09Z</time>
      </trkpt>
      <trkpt lat="49.63126" lon="4.94985">
        <ele>257.77</ele>
        <time>2019-03-17T11:07:28Z</time>
      </trkpt>
      <trkpt lat="49.63142" lon="4.94973">
        <ele>253.44</ele>
        <time>2019-03-17T11:07:45Z</time>
      </trkpt>
      <trkpt lat="49.63151" lon="4.94965">
        <ele>252</ele>
        <time>2019-03-17T11:07:55Z</time>
      </trkpt>
      <trkpt lat="49.63157" lon="4.94958">
        <ele>251.04</ele>
        <time>2019-03-17T11:08:02Z</time>
      </trkpt>
      <trkpt lat="49.63177" lon="4.94935">
        <ele>250.08</ele>
        <time>2019-03-17T11:08:23Z</time>
      </trkpt>
      <trkpt lat="49.63195" lon="4.94913">
        <ele>248.64</ele>
        <time>2019-03-17T11:08:44Z</time>
      </trkpt>
      <trkpt lat="49.63212" lon="4.94892">
        <ele>244.79</ele>
        <time>2019-03-17T11:09:04Z</time>
      </trkpt>
      <trkpt lat="49.63215" lon="4.94886">
        <ele>244.79</ele>
        <time>2019-03-17T11:09:08Z</time>
      </trkpt>
      <trkpt lat="49.63237" lon="4.94861">
        <ele>245.75</ele>
        <time>2019-03-17T11:09:31Z</time>
      </trkpt>
      <trkpt lat="49.63254" lon="4.94838">
        <ele>246.72</ele>
        <time>2019-03-17T11:09:50Z</time>
      </trkpt>
      <trkpt lat="49.63269" lon="4.94818">
        <ele>247.2</ele>
        <time>2019-03-17T11:10:09Z</time>
      </trkpt>
      <trkpt lat="49.63289" lon="4.94792">
        <ele>248.64</ele>
        <time>2019-03-17T11:10:30Z</time>
      </trkpt>
      <trkpt lat="49.63293" lon="4.94789">
        <ele>248.64</ele>
        <time>2019-03-17T11:10:36Z</time>
      </trkpt>
      <trkpt lat="49.63312" lon="4.94797">
        <ele>247.68</ele>
        <time>2019-03-17T11:10:55Z</time>
      </trkpt>
      <trkpt lat="49.6333" lon="4.94819">
        <ele>243.83</ele>
        <time>2019-03-17T11:11:15Z</time>
      </trkpt>
      <trkpt lat="49.6335" lon="4.94847">
        <ele>241.91</ele>
        <time>2019-03-17T11:11:39Z</time>
      </trkpt>
      <trkpt lat="49.63364" lon="4.94868">
        <ele>242.87</ele>
        <time>2019-03-17T11:11:57Z</time>
      </trkpt>
      <trkpt lat="49.6337" lon="4.949">
        <ele>246.23</ele>
        <time>2019-03-17T11:12:16Z</time>
      </trkpt>
      <trkpt lat="49.63367" lon="4.94932">
        <ele>247.2</ele>
        <time>2019-03-17T11:12:36Z</time>
      </trkpt>
      <trkpt lat="49.63363" lon="4.94963">
        <ele>249.6</ele>
        <time>2019-03-17T11:12:54Z</time>
      </trkpt>
      <trkpt lat="49.63363" lon="4.94974">
        <ele>249.6</ele>
        <time>2019-03-17T11:13:01Z</time>
      </trkpt>
      <trkpt lat="49.63382" lon="4.94995">
        <ele>250.08</ele>
        <time>2019-03-17T11:13:21Z</time>
      </trkpt>
      <trkpt lat="49.63395" lon="4.95009">
        <ele>249.6</ele>
        <time>2019-03-17T11:13:37Z</time>
      </trkpt>
      <trkpt lat="49.63407" lon="4.95026">
        <ele>252</ele>
        <time>2019-03-17T11:13:54Z</time>
      </trkpt>
      <trkpt lat="49.63422" lon="4.95047">
        <ele>252.96</ele>
        <time>2019-03-17T11:14:13Z</time>
      </trkpt>
      <trkpt lat="49.63431" lon="4.95064">
        <ele>254.89</ele>
        <time>2019-03-17T11:14:28Z</time>
      </trkpt>
      <trkpt lat="49.63444" lon="4.95082">
        <ele>256.33</ele>
        <time>2019-03-17T11:14:45Z</time>
      </trkpt>
      <trkpt lat="49.63457" lon="4.95102">
        <ele>256.81</ele>
        <time>2019-03-17T11:15:03Z</time>
      </trkpt>
      <trkpt lat="49.63464" lon="4.95113">
        <ele>257.29</ele>
        <time>2019-03-17T11:15:18Z</time>
      </trkpt>
      <trkpt lat="49.63474" lon="4.9513">
        <ele>257.77</ele>
        <time>2019-03-17T11:15:34Z</time>
      </trkpt>
      <trkpt lat="49.63491" lon="4.95152">
        <ele>259.21</ele>
        <time>2019-03-17T11:15:56Z</time>
      </trkpt>
      <trkpt lat="49.63502" lon="4.95166">
        <ele>261.14</ele>
        <time>2019-03-17T11:16:12Z</time>
      </trkpt>
      <trkpt lat="49.63516" lon="4.95188">
        <ele>262.58</ele>
        <time>2019-03-17T11:16:30Z</time>
      </trkpt>
      <trkpt lat="49.63531" lon="4.9521">
        <ele>264.02</ele>
        <time>2019-03-17T11:16:49Z</time>
      </trkpt>
      <trkpt lat="49.63544" lon="4.95226">
        <ele>265.46</ele>
        <time>2019-03-17T11:17:04Z</time>
      </trkpt>
      <trkpt lat="49.63556" lon="4.95243">
        <ele>265.94</ele>
        <time>2019-03-17T11:17:20Z</time>
      </trkpt>
      <trkpt lat="49.63573" lon="4.95259">
        <ele>266.42</ele>
        <time>2019-03-17T11:17:39Z</time>
      </trkpt>
      <trkpt lat="49.63587" lon="4.95276">
        <ele>267.86</ele>
        <time>2019-03-17T11:17:57Z</time>
      </trkpt>
      <trkpt lat="49.63602" lon="4.95293">
        <ele>266.42</ele>
        <time>2019-03-17T11:18:15Z</time>
      </trkpt>
      <trkpt lat="49.63618" lon="4.95308">
        <ele>266.9</ele>
        <time>2019-03-17T11:18:31Z</time>
      </trkpt>
      <trkpt lat="49.6363" lon="4.95323">
        <ele>267.86</ele>
        <time>2019-03-17T11:18:46Z</time>
      </trkpt>
      <trkpt lat="49.63633" lon="4.95324">
        <ele>267.86</ele>
        <time>2019-03-17T11:18:49Z</time>
      </trkpt>
      <trkpt lat="49.63638" lon="4.95329">
        <ele>268.35</ele>
        <time>2019-03-17T11:18:55Z</time>
      </trkpt>
      <trkpt lat="49.63656" lon="4.95349">
        <ele>270.75</ele>
        <time>2019-03-17T11:19:15Z</time>
      </trkpt>
      <trkpt lat="49.63674" lon="4.95368">
        <ele>272.67</ele>
        <time>2019-03-17T11:19:36Z</time>
      </trkpt>
      <trkpt lat="49.63691" lon="4.95387">
        <ele>272.19</ele>
        <time>2019-03-17T11:19:54Z</time>
      </trkpt>
      <trkpt lat="49.63705" lon="4.95401">
        <ele>273.15</ele>
        <time>2019-03-17T11:20:10Z</time>
      </trkpt>
      <trkpt lat="49.6371" lon="4.95408">
        <ele>272.67</ele>
        <time>2019-03-17T11:20:17Z</time>
      </trkpt>
      <trkpt lat="49.63728" lon="4.95428">
        <ele>273.15</ele>
        <time>2019-03-17T11:20:37Z</time>
      </trkpt>
      <trkpt lat="49.6374" lon="4.95441">
        <ele>272.19</ele>
        <time>2019-03-17T11:20:50Z</time>
      </trkpt>
      <trkpt lat="49.63759" lon="4.95461">
        <ele>272.19</ele>
        <time>2019-03-17T11:21:11Z</time>
      </trkpt>
      <trkpt lat="49.63771" lon="4.95473">
        <ele>272.67</ele>
        <time>2019-03-17T11:21:27Z</time>
      </trkpt>
      <trkpt lat="49.63789" lon="4.95493">
        <ele>274.11</ele>
        <time>2019-03-17T11:21:49Z</time>
      </trkpt>
      <trkpt lat="49.63805" lon="4.95512">
        <ele>276.04</ele>
        <time>2019-03-17T11:22:07Z</time>
      </trkpt>
      <trkpt lat="49.63817" lon="4.95523">
        <ele>277</ele>
        <time>2019-03-17T11:22:24Z</time>
      </trkpt>
      <trkpt lat="49.6382" lon="4.95523">
        <ele>276.52</ele>
        <time>2019-03-17T11:22:27Z</time>
      </trkpt>
      <trkpt lat="49.63824" lon="4.95526">
        <ele>275.56</ele>
        <time>2019-03-17T11:22:32Z</time>
      </trkpt>
      <trkpt lat="49.63833" lon="4.95538">
        <ele>272.19</ele>
        <time>2019-03-17T11:22:46Z</time>
      </trkpt>
      <trkpt lat="49.63851" lon="4.95556">
        <ele>270.27</ele>
        <time>2019-03-17T11:23:04Z</time>
      </trkpt>
      <trkpt lat="49.63858" lon="4.95565">
        <ele>269.31</ele>
        <time>2019-03-17T11:23:12Z</time>
      </trkpt>
      <trkpt lat="49.63872" lon="4.95576">
        <ele>271.71</ele>
        <time>2019-03-17T11:23:28Z</time>
      </trkpt>
      <trkpt lat="49.63873" lon="4.95577">
        <ele>272.19</ele>
        <time>2019-03-17T11:23:30Z</time>
      </trkpt>
      <trkpt lat="49.63878" lon="4.95582">
        <ele>272.67</ele>
        <time>2019-03-17T11:23:36Z</time>
      </trkpt>
      <trkpt lat="49.6389" lon="4.95596">
        <ele>274.59</ele>
        <time>2019-03-17T11:23:52Z</time>
      </trkpt>
      <trkpt lat="49.63897" lon="4.95603">
        <ele>274.59</ele>
        <time>2019-03-17T11:24:01Z</time>
      </trkpt>
      <trkpt lat="49.63911" lon="4.95619">
        <ele>275.56</ele>
        <time>2019-03-17T11:24:15Z</time>
      </trkpt>
      <trkpt lat="49.63925" lon="4.95629">
        <ele>277.96</ele>
        <time>2019-03-17T11:24:31Z</time>
      </trkpt>
      <trkpt lat="49.63933" lon="4.95642">
        <ele>277.96</ele>
        <time>2019-03-17T11:24:44Z</time>
      </trkpt>
      <trkpt lat="49.63943" lon="4.95654">
        <ele>277.48</ele>
        <time>2019-03-17T11:24:57Z</time>
      </trkpt>
      <trkpt lat="49.63958" lon="4.95666">
        <ele>278.92</ele>
        <time>2019-03-17T11:25:13Z</time>
      </trkpt>
      <trkpt lat="49.63965" lon="4.95671">
        <ele>277.48</ele>
        <time>2019-03-17T11:25:21Z</time>
      </trkpt>
      <trkpt lat="49.63978" lon="4.95685">
        <ele>276.52</ele>
        <time>2019-03-17T11:25:36Z</time>
      </trkpt>
      <trkpt lat="49.63991" lon="4.95701">
        <ele>272.67</ele>
        <time>2019-03-17T11:25:51Z</time>
      </trkpt>
      <trkpt lat="49.64004" lon="4.95722">
        <ele>274.59</ele>
        <time>2019-03-17T11:26:06Z</time>
      </trkpt>
      <trkpt lat="49.64015" lon="4.95735">
        <ele>276.52</ele>
        <time>2019-03-17T11:26:22Z</time>
      </trkpt>
      <trkpt lat="49.64024" lon="4.95746">
        <ele>277</ele>
        <time>2019-03-17T11:26:36Z</time>
      </trkpt>
      <trkpt lat="49.64037" lon="4.95763">
        <ele>278.92</ele>
        <time>2019-03-17T11:26:53Z</time>
      </trkpt>
      <trkpt lat="49.64047" lon="4.95779">
        <ele>283.25</ele>
        <time>2019-03-17T11:27:06Z</time>
      </trkpt>
      <trkpt lat="49.64058" lon="4.95794">
        <ele>286.61</ele>
        <time>2019-03-17T11:27:20Z</time>
      </trkpt>
      <trkpt lat="49.64069" lon="4.95805">
        <ele>290.94</ele>
        <time>2019-03-17T11:27:35Z</time>
      </trkpt>
      <trkpt lat="49.64081" lon="4.95818">
        <ele>292.38</ele>
        <time>2019-03-17T11:27:49Z</time>
      </trkpt>
      <trkpt lat="49.6409" lon="4.95827">
        <ele>294.78</ele>
        <time>2019-03-17T11:28:00Z</time>
      </trkpt>
      <trkpt lat="49.64094" lon="4.95833">
        <ele>293.82</ele>
        <time>2019-03-17T11:28:17Z</time>
      </trkpt>
      <trkpt lat="49.64107" lon="4.95844">
        <ele>294.3</ele>
        <time>2019-03-17T11:28:34Z</time>
      </trkpt>
      <trkpt lat="49.64126" lon="4.95858">
        <ele>292.86</ele>
        <time>2019-03-17T11:28:50Z</time>
      </trkpt>
      <trkpt lat="49.64144" lon="4.95875">
        <ele>292.38</ele>
        <time>2019-03-17T11:29:06Z</time>
      </trkpt>
      <trkpt lat="49.64159" lon="4.95887">
        <ele>289.97</ele>
        <time>2019-03-17T11:29:21Z</time>
      </trkpt>
      <trkpt lat="49.6417" lon="4.95895">
        <ele>289.49</ele>
        <time>2019-03-17T11:29:37Z</time>
      </trkpt>
      <trkpt lat="49.64184" lon="4.95907">
        <ele>291.42</ele>
        <time>2019-03-17T11:29:54Z</time>
      </trkpt>
      <trkpt lat="49.64199" lon="4.95918">
        <ele>287.57</ele>
        <time>2019-03-17T11:30:10Z</time>
      </trkpt>
      <trkpt lat="49.64213" lon="4.9593">
        <ele>282.28</ele>
        <time>2019-03-17T11:30:26Z</time>
      </trkpt>
      <trkpt lat="49.64227" lon="4.95939">
        <ele>280.84</ele>
        <time>2019-03-17T11:30:40Z</time>
      </trkpt>
      <trkpt lat="49.6424" lon="4.95948">
        <ele>279.88</ele>
        <time>2019-03-17T11:30:56Z</time>
      </trkpt>
      <trkpt lat="49.64254" lon="4.95956">
        <ele>282.77</ele>
        <time>2019-03-17T11:31:13Z</time>
      </trkpt>
      <trkpt lat="49.64264" lon="4.95963">
        <ele>285.17</ele>
        <time>2019-03-17T11:31:29Z</time>
      </trkpt>
      <trkpt lat="49.64284" lon="4.95978">
        <ele>288.05</ele>
        <time>2019-03-17T11:31:45Z</time>
      </trkpt>
      <trkpt lat="49.64299" lon="4.95985">
        <ele>288.53</ele>
        <time>2019-03-17T11:31:59Z</time>
      </trkpt>
      <trkpt lat="49.64311" lon="4.95992">
        <ele>288.05</ele>
        <time>2019-03-17T11:32:11Z</time>
      </trkpt>
      <trkpt lat="49.64331" lon="4.95999">
        <ele>288.05</ele>
        <time>2019-03-17T11:32:30Z</time>
      </trkpt>
      <trkpt lat="49.64349" lon="4.96009">
        <ele>288.05</ele>
        <time>2019-03-17T11:32:47Z</time>
      </trkpt>
      <trkpt lat="49.64366" lon="4.96017">
        <ele>289.01</ele>
        <time>2019-03-17T11:33:04Z</time>
      </trkpt>
      <trkpt lat="49.64385" lon="4.96025">
        <ele>289.97</ele>
        <time>2019-03-17T11:33:22Z</time>
      </trkpt>
      <trkpt lat="49.644" lon="4.9603">
        <ele>290.46</ele>
        <time>2019-03-17T11:33:38Z</time>
      </trkpt>
      <trkpt lat="49.64406" lon="4.96026">
        <ele>290.46</ele>
        <time>2019-03-17T11:33:53Z</time>
      </trkpt>
      <trkpt lat="49.64406" lon="4.96028">
        <ele>290.46</ele>
        <time>2019-03-17T11:34:24Z</time>
      </trkpt>
      <trkpt lat="49.64407" lon="4.96028">
        <ele>290.94</ele>
        <time>2019-03-17T11:34:47Z</time>
      </trkpt>
      <trkpt lat="49.64409" lon="4.96028">
        <ele>290.94</ele>
        <time>2019-03-17T11:35:11Z</time>
      </trkpt>
      <trkpt lat="49.64409" lon="4.96026">
        <ele>291.9</ele>
        <time>2019-03-17T11:35:33Z</time>
      </trkpt>
      <trkpt lat="49.64411" lon="4.96025">
        <ele>291.9</ele>
        <time>2019-03-17T11:35:57Z</time>
      </trkpt>
      <trkpt lat="49.64412" lon="4.96026">
        <ele>291.42</ele>
        <time>2019-03-17T11:36:23Z</time>
      </trkpt>
      <trkpt lat="49.64412" lon="4.96026">
        <ele>292.38</ele>
        <time>2019-03-17T11:36:51Z</time>
      </trkpt>
      <trkpt lat="49.64413" lon="4.96028">
        <ele>292.38</ele>
        <time>2019-03-17T11:37:13Z</time>
      </trkpt>
      <trkpt lat="49.64423" lon="4.96035">
        <ele>291.42</ele>
        <time>2019-03-17T11:37:29Z</time>
      </trkpt>
      <trkpt lat="49.64434" lon="4.96038">
        <ele>289.01</ele>
        <time>2019-03-17T11:37:45Z</time>
      </trkpt>
      <trkpt lat="49.64448" lon="4.96041">
        <ele>288.53</ele>
        <time>2019-03-17T11:38:02Z</time>
      </trkpt>
      <trkpt lat="49.6446" lon="4.96041">
        <ele>287.57</ele>
        <time>2019-03-17T11:38:18Z</time>
      </trkpt>
      <trkpt lat="49.64472" lon="4.9604">
        <ele>286.13</ele>
        <time>2019-03-17T11:38:33Z</time>
      </trkpt>
      <trkpt lat="49.64478" lon="4.9604">
        <ele>284.69</ele>
        <time>2019-03-17T11:38:50Z</time>
      </trkpt>
      <trkpt lat="49.64491" lon="4.96039">
        <ele>280.84</ele>
        <time>2019-03-17T11:39:05Z</time>
      </trkpt>
      <trkpt lat="49.64507" lon="4.96043">
        <ele>278.44</ele>
        <time>2019-03-17T11:39:21Z</time>
      </trkpt>
      <trkpt lat="49.64513" lon="4.96059">
        <ele>278.44</ele>
        <time>2019-03-17T11:39:36Z</time>
      </trkpt>
      <trkpt lat="49.64518" lon="4.96075">
        <ele>277.48</ele>
        <time>2019-03-17T11:39:50Z</time>
      </trkpt>
      <trkpt lat="49.64524" lon="4.96098">
        <ele>278.44</ele>
        <time>2019-03-17T11:40:06Z</time>
      </trkpt>
      <trkpt lat="49.64529" lon="4.96113">
        <ele>277.96</ele>
        <time>2019-03-17T11:40:19Z</time>
      </trkpt>
      <trkpt lat="49.64533" lon="4.96118">
        <ele>277.96</ele>
        <time>2019-03-17T11:40:33Z</time>
      </trkpt>
      <trkpt lat="49.6454" lon="4.96132">
        <ele>280.36</ele>
        <time>2019-03-17T11:40:47Z</time>
      </trkpt>
      <trkpt lat="49.64542" lon="4.96145">
        <ele>279.88</ele>
        <time>2019-03-17T11:41:05Z</time>
      </trkpt>
      <trkpt lat="49.6455" lon="4.96152">
        <ele>279.4</ele>
        <time>2019-03-17T11:41:18Z</time>
      </trkpt>
      <trkpt lat="49.64557" lon="4.96176">
        <ele>276.04</ele>
        <time>2019-03-17T11:41:35Z</time>
      </trkpt>
      <trkpt lat="49.64562" lon="4.96195">
        <ele>273.63</ele>
        <time>2019-03-17T11:41:50Z</time>
      </trkpt>
      <trkpt lat="49.64567" lon="4.96212">
        <ele>269.79</ele>
        <time>2019-03-17T11:42:04Z</time>
      </trkpt>
      <trkpt lat="49.64574" lon="4.96229">
        <ele>270.75</ele>
        <time>2019-03-17T11:42:18Z</time>
      </trkpt>
      <trkpt lat="49.64581" lon="4.96253">
        <ele>271.23</ele>
        <time>2019-03-17T11:42:36Z</time>
      </trkpt>
      <trkpt lat="49.6458" lon="4.96257">
        <ele>270.75</ele>
        <time>2019-03-17T11:42:48Z</time>
      </trkpt>
      <trkpt lat="49.64584" lon="4.96267">
        <ele>270.75</ele>
        <time>2019-03-17T11:43:05Z</time>
      </trkpt>
      <trkpt lat="49.64589" lon="4.96286">
        <ele>271.23</ele>
        <time>2019-03-17T11:43:20Z</time>
      </trkpt>
      <trkpt lat="49.64595" lon="4.9631">
        <ele>265.94</ele>
        <time>2019-03-17T11:43:38Z</time>
      </trkpt>
      <trkpt lat="49.646" lon="4.96331">
        <ele>263.06</ele>
        <time>2019-03-17T11:43:53Z</time>
      </trkpt>
      <trkpt lat="49.64606" lon="4.96355">
        <ele>260.65</ele>
        <time>2019-03-17T11:44:10Z</time>
      </trkpt>
      <trkpt lat="49.64612" lon="4.96378">
        <ele>260.17</ele>
        <time>2019-03-17T11:44:27Z</time>
      </trkpt>
      <trkpt lat="49.64618" lon="4.96397">
        <ele>259.21</ele>
        <time>2019-03-17T11:44:42Z</time>
      </trkpt>
      <trkpt lat="49.64623" lon="4.96414">
        <ele>257.77</ele>
        <time>2019-03-17T11:44:56Z</time>
      </trkpt>
      <trkpt lat="49.6463" lon="4.96429">
        <ele>256.33</ele>
        <time>2019-03-17T11:45:10Z</time>
      </trkpt>
      <trkpt lat="49.64635" lon="4.9644">
        <ele>255.85</ele>
        <time>2019-03-17T11:45:24Z</time>
      </trkpt>
      <trkpt lat="49.64642" lon="4.96458">
        <ele>254.89</ele>
        <time>2019-03-17T11:45:39Z</time>
      </trkpt>
      <trkpt lat="49.6465" lon="4.96476">
        <ele>252.48</ele>
        <time>2019-03-17T11:45:56Z</time>
      </trkpt>
      <trkpt lat="49.64655" lon="4.96483">
        <ele>248.64</ele>
        <time>2019-03-17T11:46:05Z</time>
      </trkpt>
      <trkpt lat="49.64663" lon="4.96497">
        <ele>246.72</ele>
        <time>2019-03-17T11:46:18Z</time>
      </trkpt>
      <trkpt lat="49.64668" lon="4.96517">
        <ele>246.23</ele>
        <time>2019-03-17T11:46:32Z</time>
      </trkpt>
      <trkpt lat="49.64669" lon="4.96538">
        <ele>245.27</ele>
        <time>2019-03-17T11:46:48Z</time>
      </trkpt>
      <trkpt lat="49.64672" lon="4.9656">
        <ele>243.83</ele>
        <time>2019-03-17T11:47:04Z</time>
      </trkpt>
      <trkpt lat="49.64672" lon="4.96587">
        <ele>244.31</ele>
        <time>2019-03-17T11:47:24Z</time>
      </trkpt>
      <trkpt lat="49.64672" lon="4.96588">
        <ele>244.31</ele>
        <time>2019-03-17T11:47:25Z</time>
      </trkpt>
      <trkpt lat="49.6467" lon="4.96615">
        <ele>248.16</ele>
        <time>2019-03-17T11:47:45Z</time>
      </trkpt>
      <trkpt lat="49.64669" lon="4.96636">
        <ele>248.64</ele>
        <time>2019-03-17T11:48:00Z</time>
      </trkpt>
      <trkpt lat="49.64668" lon="4.96657">
        <ele>247.2</ele>
        <time>2019-03-17T11:48:15Z</time>
      </trkpt>
      <trkpt lat="49.64668" lon="4.96665">
        <ele>246.72</ele>
        <time>2019-03-17T11:48:30Z</time>
      </trkpt>
      <trkpt lat="49.64666" lon="4.96674">
        <ele>245.75</ele>
        <time>2019-03-17T11:48:48Z</time>
      </trkpt>
      <trkpt lat="49.64667" lon="4.96678">
        <ele>245.75</ele>
        <time>2019-03-17T11:49:02Z</time>
      </trkpt>
      <trkpt lat="49.64666" lon="4.96681">
        <ele>246.72</ele>
        <time>2019-03-17T11:49:19Z</time>
      </trkpt>
      <trkpt lat="49.6467" lon="4.96701">
        <ele>244.79</ele>
        <time>2019-03-17T11:49:36Z</time>
      </trkpt>
      <trkpt lat="49.6467" lon="4.96709">
        <ele>244.31</ele>
        <time>2019-03-17T11:49:50Z</time>
      </trkpt>
      <trkpt lat="49.64671" lon="4.96713">
        <ele>244.31</ele>
        <time>2019-03-17T11:50:12Z</time>
      </trkpt>
      <trkpt lat="49.6467" lon="4.96714">
        <ele>247.68</ele>
        <time>2019-03-17T11:50:26Z</time>
      </trkpt>
      <trkpt lat="49.6467" lon="4.96713">
        <ele>249.12</ele>
        <time>2019-03-17T11:50:43Z</time>
      </trkpt>
      <trkpt lat="49.64669" lon="4.96713">
        <ele>251.52</ele>
        <time>2019-03-17T11:51:10Z</time>
      </trkpt>
      <trkpt lat="49.6467" lon="4.96712">
        <ele>252.48</ele>
        <time>2019-03-17T11:51:33Z</time>
      </trkpt>
      <trkpt lat="49.6467" lon="4.96713">
        <ele>252.48</ele>
        <time>2019-03-17T11:51:51Z</time>
      </trkpt>
      <trkpt lat="49.64671" lon="4.96716">
        <ele>252</ele>
        <time>2019-03-17T11:52:10Z</time>
      </trkpt>
      <trkpt lat="49.64671" lon="4.96718">
        <ele>251.04</ele>
        <time>2019-03-17T11:52:28Z</time>
      </trkpt>
      <trkpt lat="49.64672" lon="4.96718">
        <ele>250.08</ele>
        <time>2019-03-17T11:52:53Z</time>
      </trkpt>
      <trkpt lat="49.64673" lon="4.9672">
        <ele>249.6</ele>
        <time>2019-03-17T11:53:17Z</time>
      </trkpt>
      <trkpt lat="49.64673" lon="4.96722">
        <ele>250.08</ele>
        <time>2019-03-17T11:53:47Z</time>
      </trkpt>
      <trkpt lat="49.64673" lon="4.96723">
        <ele>249.12</ele>
        <time>2019-03-17T11:54:14Z</time>
      </trkpt>
      <trkpt lat="49.64673" lon="4.96723">
        <ele>249.12</ele>
        <time>2019-03-17T11:54:40Z</time>
      </trkpt>
      <trkpt lat="49.64673" lon="4.96724">
        <ele>248.64</ele>
        <time>2019-03-17T11:55:00Z</time>
      </trkpt>
      <trkpt lat="49.64672" lon="4.96723">
        <ele>248.64</ele>
        <time>2019-03-17T11:55:12Z</time>
      </trkpt>
      <trkpt lat="49.64672" lon="4.96726">
        <ele>246.72</ele>
        <time>2019-03-17T11:55:39Z</time>
      </trkpt>
      <trkpt lat="49.64675" lon="4.96731">
        <ele>246.23</ele>
        <time>2019-03-17T11:55:55Z</time>
      </trkpt>
      <trkpt lat="49.64676" lon="4.96735">
        <ele>246.23</ele>
        <time>2019-03-17T11:56:11Z</time>
      </trkpt>
      <trkpt lat="49.64678" lon="4.96745">
        <ele>244.31</ele>
        <time>2019-03-17T11:56:25Z</time>
      </trkpt>
      <trkpt lat="49.6468" lon="4.96752">
        <ele>242.87</ele>
        <time>2019-03-17T11:56:38Z</time>
      </trkpt>
      <trkpt lat="49.64686" lon="4.96777">
        <ele>239.51</ele>
        <time>2019-03-17T11:56:53Z</time>
      </trkpt>
      <trkpt lat="49.64689" lon="4.96796">
        <ele>238.54</ele>
        <time>2019-03-17T11:57:08Z</time>
      </trkpt>
      <trkpt lat="49.64692" lon="4.96809">
        <ele>236.62</ele>
        <time>2019-03-17T11:57:22Z</time>
      </trkpt>
      <trkpt lat="49.64696" lon="4.96822">
        <ele>235.18</ele>
        <time>2019-03-17T11:57:36Z</time>
      </trkpt>
      <trkpt lat="49.64699" lon="4.96837">
        <ele>233.74</ele>
        <time>2019-03-17T11:57:51Z</time>
      </trkpt>
      <trkpt lat="49.64702" lon="4.96848">
        <ele>232.78</ele>
        <time>2019-03-17T11:58:00Z</time>
      </trkpt>
      <trkpt lat="49.64707" lon="4.96872">
        <ele>235.18</ele>
        <time>2019-03-17T11:58:14Z</time>
      </trkpt>
      <trkpt lat="49.64712" lon="4.96894">
        <ele>240.47</ele>
        <time>2019-03-17T11:58:30Z</time>
      </trkpt>
      <trkpt lat="49.64715" lon="4.96903">
        <ele>240.95</ele>
        <time>2019-03-17T11:58:44Z</time>
      </trkpt>
      <trkpt lat="49.64716" lon="4.96911">
        <ele>240.95</ele>
        <time>2019-03-17T11:58:54Z</time>
      </trkpt>
      <trkpt lat="49.64721" lon="4.96927">
        <ele>240.95</ele>
        <time>2019-03-17T11:59:08Z</time>
      </trkpt>
      <trkpt lat="49.64726" lon="4.96938">
        <ele>238.54</ele>
        <time>2019-03-17T11:59:19Z</time>
      </trkpt>
      <trkpt lat="49.64736" lon="4.96963">
        <ele>234.7</ele>
        <time>2019-03-17T11:59:38Z</time>
      </trkpt>
      <trkpt lat="49.64739" lon="4.96979">
        <ele>235.18</ele>
        <time>2019-03-17T11:59:50Z</time>
      </trkpt>
      <trkpt lat="49.64742" lon="4.9701">
        <ele>239.99</ele>
        <time>2019-03-17T12:00:06Z</time>
      </trkpt>
      <trkpt lat="49.64744" lon="4.97032">
        <ele>243.35</ele>
        <time>2019-03-17T12:00:21Z</time>
      </trkpt>
      <trkpt lat="49.64746" lon="4.97055">
        <ele>244.79</ele>
        <time>2019-03-17T12:00:35Z</time>
      </trkpt>
      <trkpt lat="49.64747" lon="4.97085">
        <ele>245.27</ele>
        <time>2019-03-17T12:00:53Z</time>
      </trkpt>
      <trkpt lat="49.64745" lon="4.97102">
        <ele>244.31</ele>
        <time>2019-03-17T12:01:05Z</time>
      </trkpt>
      <trkpt lat="49.64743" lon="4.97115">
        <ele>241.91</ele>
        <time>2019-03-17T12:01:20Z</time>
      </trkpt>
      <trkpt lat="49.64743" lon="4.97126">
        <ele>239.51</ele>
        <time>2019-03-17T12:01:36Z</time>
      </trkpt>
      <trkpt lat="49.64742" lon="4.97141">
        <ele>238.06</ele>
        <time>2019-03-17T12:01:51Z</time>
      </trkpt>
      <trkpt lat="49.64742" lon="4.97158">
        <ele>237.1</ele>
        <time>2019-03-17T12:02:06Z</time>
      </trkpt>
      <trkpt lat="49.64743" lon="4.97176">
        <ele>235.66</ele>
        <time>2019-03-17T12:02:20Z</time>
      </trkpt>
      <trkpt lat="49.6474" lon="4.972">
        <ele>234.7</ele>
        <time>2019-03-17T12:02:39Z</time>
      </trkpt>
      <trkpt lat="49.64739" lon="4.97215">
        <ele>233.74</ele>
        <time>2019-03-17T12:02:52Z</time>
      </trkpt>
      <trkpt lat="49.6474" lon="4.97238">
        <ele>233.26</ele>
        <time>2019-03-17T12:03:08Z</time>
      </trkpt>
      <trkpt lat="49.6475" lon="4.97257">
        <ele>232.3</ele>
        <time>2019-03-17T12:03:24Z</time>
      </trkpt>
      <trkpt lat="49.64755" lon="4.97261">
        <ele>230.85</ele>
        <time>2019-03-17T12:03:31Z</time>
      </trkpt>
      <trkpt lat="49.64759" lon="4.97265">
        <ele>230.37</ele>
        <time>2019-03-17T12:03:37Z</time>
      </trkpt>
      <trkpt lat="49.64771" lon="4.97286">
        <ele>227.49</ele>
        <time>2019-03-17T12:03:56Z</time>
      </trkpt>
      <trkpt lat="49.64777" lon="4.97294">
        <ele>226.05</ele>
        <time>2019-03-17T12:04:03Z</time>
      </trkpt>
      <trkpt lat="49.64791" lon="4.97311">
        <ele>222.68</ele>
        <time>2019-03-17T12:04:20Z</time>
      </trkpt>
      <trkpt lat="49.64808" lon="4.97328">
        <ele>220.28</ele>
        <time>2019-03-17T12:04:39Z</time>
      </trkpt>
      <trkpt lat="49.64822" lon="4.97342">
        <ele>216.43</ele>
        <time>2019-03-17T12:04:57Z</time>
      </trkpt>
      <trkpt lat="49.64831" lon="4.9735">
        <ele>216.43</ele>
        <time>2019-03-17T12:05:09Z</time>
      </trkpt>
      <trkpt lat="49.64846" lon="4.97365">
        <ele>216.91</ele>
        <time>2019-03-17T12:05:26Z</time>
      </trkpt>
      <trkpt lat="49.64847" lon="4.97366">
        <ele>216.43</ele>
        <time>2019-03-17T12:05:27Z</time>
      </trkpt>
      <trkpt lat="49.64864" lon="4.97381">
        <ele>215.95</ele>
        <time>2019-03-17T12:05:46Z</time>
      </trkpt>
      <trkpt lat="49.64882" lon="4.97401">
        <ele>215.95</ele>
        <time>2019-03-17T12:06:06Z</time>
      </trkpt>
      <trkpt lat="49.64896" lon="4.9742">
        <ele>215.95</ele>
        <time>2019-03-17T12:06:24Z</time>
      </trkpt>
      <trkpt lat="49.64909" lon="4.97442">
        <ele>214.51</ele>
        <time>2019-03-17T12:06:43Z</time>
      </trkpt>
      <trkpt lat="49.6492" lon="4.97464">
        <ele>214.03</ele>
        <time>2019-03-17T12:07:02Z</time>
      </trkpt>
      <trkpt lat="49.64928" lon="4.97478">
        <ele>213.55</ele>
        <time>2019-03-17T12:07:15Z</time>
      </trkpt>
      <trkpt lat="49.6494" lon="4.97507">
        <ele>213.55</ele>
        <time>2019-03-17T12:07:35Z</time>
      </trkpt>
      <trkpt lat="49.64946" lon="4.97531">
        <ele>212.59</ele>
        <time>2019-03-17T12:07:53Z</time>
      </trkpt>
      <trkpt lat="49.6495" lon="4.97558">
        <ele>209.7</ele>
        <time>2019-03-17T12:08:12Z</time>
      </trkpt>
      <trkpt lat="49.64949" lon="4.97587">
        <ele>209.22</ele>
        <time>2019-03-17T12:08:31Z</time>
      </trkpt>
      <trkpt lat="49.64944" lon="4.97604">
        <ele>207.3</ele>
        <time>2019-03-17T12:08:49Z</time>
      </trkpt>
      <trkpt lat="49.64935" lon="4.97628">
        <ele>203.46</ele>
        <time>2019-03-17T12:09:05Z</time>
      </trkpt>
      <trkpt lat="49.64927" lon="4.97653">
        <ele>199.61</ele>
        <time>2019-03-17T12:09:23Z</time>
      </trkpt>
      <trkpt lat="49.64921" lon="4.97674">
        <ele>200.09</ele>
        <time>2019-03-17T12:09:38Z</time>
      </trkpt>
      <trkpt lat="49.64919" lon="4.97679">
        <ele>200.57</ele>
        <time>2019-03-17T12:09:42Z</time>
      </trkpt>
      <trkpt lat="49.64911" lon="4.97701">
        <ele>202.01</ele>
        <time>2019-03-17T12:09:57Z</time>
      </trkpt>
      <trkpt lat="49.64902" lon="4.9773">
        <ele>198.65</ele>
        <time>2019-03-17T12:10:16Z</time>
      </trkpt>
      <trkpt lat="49.64901" lon="4.97739">
        <ele>197.69</ele>
        <time>2019-03-17T12:10:23Z</time>
      </trkpt>
      <trkpt lat="49.64901" lon="4.97767">
        <ele>194.32</ele>
        <time>2019-03-17T12:10:40Z</time>
      </trkpt>
      <trkpt lat="49.649" lon="4.97799">
        <ele>194.8</ele>
        <time>2019-03-17T12:10:59Z</time>
      </trkpt>
      <trkpt lat="49.64901" lon="4.97832">
        <ele>191.44</ele>
        <time>2019-03-17T12:11:20Z</time>
      </trkpt>
      <trkpt lat="49.64901" lon="4.97869">
        <ele>190</ele>
        <time>2019-03-17T12:11:42Z</time>
      </trkpt>
      <trkpt lat="49.649" lon="4.97886">
        <ele>190</ele>
        <time>2019-03-17T12:11:54Z</time>
      </trkpt>
      <trkpt lat="49.649" lon="4.97914">
        <ele>186.15</ele>
        <time>2019-03-17T12:12:12Z</time>
      </trkpt>
      <trkpt lat="49.64903" lon="4.97934">
        <ele>184.71</ele>
        <time>2019-03-17T12:12:25Z</time>
      </trkpt>
      <trkpt lat="49.64913" lon="4.97963">
        <ele>184.23</ele>
        <time>2019-03-17T12:12:45Z</time>
      </trkpt>
      <trkpt lat="49.6492" lon="4.97989">
        <ele>182.79</ele>
        <time>2019-03-17T12:13:03Z</time>
      </trkpt>
      <trkpt lat="49.6493" lon="4.98021">
        <ele>179.9</ele>
        <time>2019-03-17T12:13:26Z</time>
      </trkpt>
      <trkpt lat="49.64937" lon="4.98046">
        <ele>180.38</ele>
        <time>2019-03-17T12:13:44Z</time>
      </trkpt>
      <trkpt lat="49.64945" lon="4.98075">
        <ele>180.87</ele>
        <time>2019-03-17T12:14:03Z</time>
      </trkpt>
      <trkpt lat="49.6495" lon="4.98103">
        <ele>179.42</ele>
        <time>2019-03-17T12:14:23Z</time>
      </trkpt>
      <trkpt lat="49.64954" lon="4.98131">
        <ele>178.46</ele>
        <time>2019-03-17T12:14:41Z</time>
      </trkpt>
      <trkpt lat="49.64958" lon="4.9815">
        <ele>175.58</ele>
        <time>2019-03-17T12:14:58Z</time>
      </trkpt>
      <trkpt lat="49.64958" lon="4.98174">
        <ele>173.66</ele>
        <time>2019-03-17T12:15:13Z</time>
      </trkpt>
      <trkpt lat="49.64959" lon="4.98203">
        <ele>171.73</ele>
        <time>2019-03-17T12:15:31Z</time>
      </trkpt>
      <trkpt lat="49.6496" lon="4.98244">
        <ele>167.41</ele>
        <time>2019-03-17T12:15:57Z</time>
      </trkpt>
      <trkpt lat="49.6496" lon="4.9825">
        <ele>166.93</ele>
        <time>2019-03-17T12:16:01Z</time>
      </trkpt>
      <trkpt lat="49.64958" lon="4.98262">
        <ele>166.45</ele>
        <time>2019-03-17T12:16:09Z</time>
      </trkpt>
      <trkpt lat="49.64951" lon="4.98291">
        <ele>164.52</ele>
        <time>2019-03-17T12:16:29Z</time>
      </trkpt>
      <trkpt lat="49.64945" lon="4.98316">
        <ele>164.52</ele>
        <time>2019-03-17T12:16:45Z</time>
      </trkpt>
      <trkpt lat="49.64939" lon="4.9834">
        <ele>165</ele>
        <time>2019-03-17T12:17:01Z</time>
      </trkpt>
      <trkpt lat="49.64933" lon="4.98367">
        <ele>163.56</ele>
        <time>2019-03-17T12:17:21Z</time>
      </trkpt>
      <trkpt lat="49.64926" lon="4.98387">
        <ele>161.16</ele>
        <time>2019-03-17T12:17:36Z</time>
      </trkpt>
      <trkpt lat="49.64918" lon="4.98407">
        <ele>158.75</ele>
        <time>2019-03-17T12:17:52Z</time>
      </trkpt>
      <trkpt lat="49.6491" lon="4.98426">
        <ele>156.83</ele>
        <time>2019-03-17T12:18:09Z</time>
      </trkpt>
      <trkpt lat="49.649" lon="4.98451">
        <ele>152.99</ele>
        <time>2019-03-17T12:18:28Z</time>
      </trkpt>
      <trkpt lat="49.64896" lon="4.98469">
        <ele>150.58</ele>
        <time>2019-03-17T12:18:39Z</time>
      </trkpt>
      <trkpt lat="49.6489" lon="4.98495">
        <ele>149.62</ele>
        <time>2019-03-17T12:18:56Z</time>
      </trkpt>
      <trkpt lat="49.64888" lon="4.98518">
        <ele>149.14</ele>
        <time>2019-03-17T12:19:12Z</time>
      </trkpt>
      <trkpt lat="49.64885" lon="4.98537">
        <ele>149.14</ele>
        <time>2019-03-17T12:19:25Z</time>
      </trkpt>
      <trkpt lat="49.64879" lon="4.98561">
        <ele>149.62</ele>
        <time>2019-03-17T12:19:41Z</time>
      </trkpt>
      <trkpt lat="49.64878" lon="4.9859">
        <ele>147.7</ele>
        <time>2019-03-17T12:20:00Z</time>
      </trkpt>
      <trkpt lat="49.64881" lon="4.98614">
        <ele>145.78</ele>
        <time>2019-03-17T12:20:15Z</time>
      </trkpt>
      <trkpt lat="49.64893" lon="4.98639">
        <ele>144.82</ele>
        <time>2019-03-17T12:20:34Z</time>
      </trkpt>
      <trkpt lat="49.64904" lon="4.98655">
        <ele>142.89</ele>
        <time>2019-03-17T12:20:50Z</time>
      </trkpt>
      <trkpt lat="49.64915" lon="4.98672">
        <ele>142.89</ele>
        <time>2019-03-17T12:21:07Z</time>
      </trkpt>
      <trkpt lat="49.6491" lon="4.98674">
        <ele>143.37</ele>
        <time>2019-03-17T12:21:21Z</time>
      </trkpt>
      <trkpt lat="49.64892" lon="4.98666">
        <ele>148.18</ele>
        <time>2019-03-17T12:21:39Z</time>
      </trkpt>
      <trkpt lat="49.64878" lon="4.98656">
        <ele>152.99</ele>
        <time>2019-03-17T12:21:56Z</time>
      </trkpt>
      <trkpt lat="49.64862" lon="4.98642">
        <ele>153.47</ele>
        <time>2019-03-17T12:22:14Z</time>
      </trkpt>
      <trkpt lat="49.64845" lon="4.98631">
        <ele>154.43</ele>
        <time>2019-03-17T12:22:31Z</time>
      </trkpt>
      <trkpt lat="49.64824" lon="4.98616">
        <ele>158.27</ele>
        <time>2019-03-17T12:22:53Z</time>
      </trkpt>
      <trkpt lat="49.64806" lon="4.98605">
        <ele>160.2</ele>
        <time>2019-03-17T12:23:12Z</time>
      </trkpt>
      <trkpt lat="49.64795" lon="4.98601">
        <ele>160.2</ele>
        <time>2019-03-17T12:23:22Z</time>
      </trkpt>
      <trkpt lat="49.64777" lon="4.9859">
        <ele>159.72</ele>
        <time>2019-03-17T12:23:40Z</time>
      </trkpt>
      <trkpt lat="49.64772" lon="4.98587">
        <ele>160.2</ele>
        <time>2019-03-17T12:23:45Z</time>
      </trkpt>
      <trkpt lat="49.6476" lon="4.98583">
        <ele>158.75</ele>
        <time>2019-03-17T12:23:56Z</time>
      </trkpt>
      <trkpt lat="49.64744" lon="4.98577">
        <ele>155.87</ele>
        <time>2019-03-17T12:24:12Z</time>
      </trkpt>
      <trkpt lat="49.64729" lon="4.98566">
        <ele>155.87</ele>
        <time>2019-03-17T12:24:29Z</time>
      </trkpt>
      <trkpt lat="49.64713" lon="4.98555">
        <ele>156.83</ele>
        <time>2019-03-17T12:24:46Z</time>
      </trkpt>
      <trkpt lat="49.64695" lon="4.98548">
        <ele>155.39</ele>
        <time>2019-03-17T12:25:03Z</time>
      </trkpt>
      <trkpt lat="49.64682" lon="4.98539">
        <ele>154.43</ele>
        <time>2019-03-17T12:25:17Z</time>
      </trkpt>
      <trkpt lat="49.64667" lon="4.98531">
        <ele>154.43</ele>
        <time>2019-03-17T12:25:33Z</time>
      </trkpt>
      <trkpt lat="49.64653" lon="4.98523">
        <ele>154.43</ele>
        <time>2019-03-17T12:25:48Z</time>
      </trkpt>
      <trkpt lat="49.64637" lon="4.98512">
        <ele>153.47</ele>
        <time>2019-03-17T12:26:07Z</time>
      </trkpt>
      <trkpt lat="49.64618" lon="4.98505">
        <ele>152.99</ele>
        <time>2019-03-17T12:26:26Z</time>
      </trkpt>
      <trkpt lat="49.64601" lon="4.98493">
        <ele>154.43</ele>
        <time>2019-03-17T12:26:44Z</time>
      </trkpt>
      <trkpt lat="49.64578" lon="4.9848">
        <ele>156.83</ele>
        <time>2019-03-17T12:27:06Z</time>
      </trkpt>
      <trkpt lat="49.64558" lon="4.98468">
        <ele>155.39</ele>
        <time>2019-03-17T12:27:26Z</time>
      </trkpt>
      <trkpt lat="49.6454" lon="4.98458">
        <ele>154.91</ele>
        <time>2019-03-17T12:27:45Z</time>
      </trkpt>
      <trkpt lat="49.64521" lon="4.98449">
        <ele>155.87</ele>
        <time>2019-03-17T12:28:05Z</time>
      </trkpt>
      <trkpt lat="49.64504" lon="4.98439">
        <ele>155.87</ele>
        <time>2019-03-17T12:28:24Z</time>
      </trkpt>
      <trkpt lat="49.64488" lon="4.98425">
        <ele>152.51</ele>
        <time>2019-03-17T12:28:43Z</time>
      </trkpt>
      <trkpt lat="49.64478" lon="4.98416">
        <ele>151.06</ele>
        <time>2019-03-17T12:28:57Z</time>
      </trkpt>
      <trkpt lat="49.64462" lon="4.98404">
        <ele>149.62</ele>
        <time>2019-03-17T12:29:12Z</time>
      </trkpt>
      <trkpt lat="49.64447" lon="4.98394">
        <ele>148.18</ele>
        <time>2019-03-17T12:29:29Z</time>
      </trkpt>
      <trkpt lat="49.64428" lon="4.98386">
        <ele>150.1</ele>
        <time>2019-03-17T12:29:47Z</time>
      </trkpt>
      <trkpt lat="49.64408" lon="4.98376">
        <ele>153.95</ele>
        <time>2019-03-17T12:30:04Z</time>
      </trkpt>
      <trkpt lat="49.64398" lon="4.98368">
        <ele>154.43</ele>
        <time>2019-03-17T12:30:19Z</time>
      </trkpt>
      <trkpt lat="49.64389" lon="4.98362">
        <ele>154.91</ele>
        <time>2019-03-17T12:30:36Z</time>
      </trkpt>
      <trkpt lat="49.64371" lon="4.9835">
        <ele>154.43</ele>
        <time>2019-03-17T12:30:54Z</time>
      </trkpt>
      <trkpt lat="49.6435" lon="4.98332">
        <ele>155.39</ele>
        <time>2019-03-17T12:31:15Z</time>
      </trkpt>
      <trkpt lat="49.64333" lon="4.98318">
        <ele>156.35</ele>
        <time>2019-03-17T12:31:33Z</time>
      </trkpt>
      <trkpt lat="49.64317" lon="4.98306">
        <ele>155.39</ele>
        <time>2019-03-17T12:31:51Z</time>
      </trkpt>
      <trkpt lat="49.64299" lon="4.98288">
        <ele>155.39</ele>
        <time>2019-03-17T12:32:10Z</time>
      </trkpt>
      <trkpt lat="49.64284" lon="4.98272">
        <ele>151.54</ele>
        <time>2019-03-17T12:32:28Z</time>
      </trkpt>
      <trkpt lat="49.64269" lon="4.98263">
        <ele>152.99</ele>
        <time>2019-03-17T12:32:43Z</time>
      </trkpt>
      <trkpt lat="49.64251" lon="4.9825">
        <ele>154.91</ele>
        <time>2019-03-17T12:33:02Z</time>
      </trkpt>
      <trkpt lat="49.64233" lon="4.98231">
        <ele>157.79</ele>
        <time>2019-03-17T12:33:22Z</time>
      </trkpt>
      <trkpt lat="49.64218" lon="4.9822">
        <ele>157.79</ele>
        <time>2019-03-17T12:33:39Z</time>
      </trkpt>
      <trkpt lat="49.64203" lon="4.98207">
        <ele>154.43</ele>
        <time>2019-03-17T12:33:56Z</time>
      </trkpt>
      <trkpt lat="49.64185" lon="4.9819">
        <ele>154.43</ele>
        <time>2019-03-17T12:34:16Z</time>
      </trkpt>
      <trkpt lat="49.64167" lon="4.98173">
        <ele>150.1</ele>
        <time>2019-03-17T12:34:35Z</time>
      </trkpt>
      <trkpt lat="49.64156" lon="4.98163">
        <ele>149.62</ele>
        <time>2019-03-17T12:34:50Z</time>
      </trkpt>
      <trkpt lat="49.64142" lon="4.98146">
        <ele>152.99</ele>
        <time>2019-03-17T12:35:08Z</time>
      </trkpt>
      <trkpt lat="49.64125" lon="4.98131">
        <ele>152.03</ele>
        <time>2019-03-17T12:35:27Z</time>
      </trkpt>
      <trkpt lat="49.64109" lon="4.98116">
        <ele>153.47</ele>
        <time>2019-03-17T12:35:43Z</time>
      </trkpt>
      <trkpt lat="49.64094" lon="4.98104">
        <ele>153.47</ele>
        <time>2019-03-17T12:35:59Z</time>
      </trkpt>
      <trkpt lat="49.64077" lon="4.98088">
        <ele>153.95</ele>
        <time>2019-03-17T12:36:16Z</time>
      </trkpt>
      <trkpt lat="49.64061" lon="4.98073">
        <ele>155.39</ele>
        <time>2019-03-17T12:36:34Z</time>
      </trkpt>
      <trkpt lat="49.64049" lon="4.98062">
        <ele>155.87</ele>
        <time>2019-03-17T12:36:50Z</time>
      </trkpt>
      <trkpt lat="49.64036" lon="4.98048">
        <ele>154.91</ele>
        <time>2019-03-17T12:37:07Z</time>
      </trkpt>
      <trkpt lat="49.6402" lon="4.98034">
        <ele>153.95</ele>
        <time>2019-03-17T12:37:25Z</time>
      </trkpt>
      <trkpt lat="49.64008" lon="4.9802">
        <ele>154.43</ele>
        <time>2019-03-17T12:37:40Z</time>
      </trkpt>
      <trkpt lat="49.63993" lon="4.98008">
        <ele>153.47</ele>
        <time>2019-03-17T12:37:56Z</time>
      </trkpt>
      <trkpt lat="49.63979" lon="4.97991">
        <ele>153.47</ele>
        <time>2019-03-17T12:38:14Z</time>
      </trkpt>
      <trkpt lat="49.63973" lon="4.97985">
        <ele>155.87</ele>
        <time>2019-03-17T12:38:29Z</time>
      </trkpt>
      <trkpt lat="49.63953" lon="4.97967">
        <ele>158.27</ele>
        <time>2019-03-17T12:38:45Z</time>
      </trkpt>
      <trkpt lat="49.63931" lon="4.9795">
        <ele>158.75</ele>
        <time>2019-03-17T12:39:06Z</time>
      </trkpt>
      <trkpt lat="49.63918" lon="4.97935">
        <ele>156.83</ele>
        <time>2019-03-17T12:39:23Z</time>
      </trkpt>
      <trkpt lat="49.63907" lon="4.97923">
        <ele>153.95</ele>
        <time>2019-03-17T12:39:38Z</time>
      </trkpt>
      <trkpt lat="49.63893" lon="4.97914">
        <ele>151.06</ele>
        <time>2019-03-17T12:39:54Z</time>
      </trkpt>
      <trkpt lat="49.63876" lon="4.97896">
        <ele>153.47</ele>
        <time>2019-03-17T12:40:11Z</time>
      </trkpt>
      <trkpt lat="49.6387" lon="4.97888">
        <ele>153.95</ele>
        <time>2019-03-17T12:40:26Z</time>
      </trkpt>
      <trkpt lat="49.63858" lon="4.9788">
        <ele>155.39</ele>
        <time>2019-03-17T12:40:42Z</time>
      </trkpt>
      <trkpt lat="49.63841" lon="4.97865">
        <ele>155.87</ele>
        <time>2019-03-17T12:40:58Z</time>
      </trkpt>
      <trkpt lat="49.63824" lon="4.9785">
        <ele>155.87</ele>
        <time>2019-03-17T12:41:16Z</time>
      </trkpt>
      <trkpt lat="49.63807" lon="4.97831">
        <ele>156.35</ele>
        <time>2019-03-17T12:41:34Z</time>
      </trkpt>
      <trkpt lat="49.63793" lon="4.97817">
        <ele>158.27</ele>
        <time>2019-03-17T12:41:51Z</time>
      </trkpt>
      <trkpt lat="49.63779" lon="4.97802">
        <ele>157.79</ele>
        <time>2019-03-17T12:42:07Z</time>
      </trkpt>
      <trkpt lat="49.63764" lon="4.97786">
        <ele>158.27</ele>
        <time>2019-03-17T12:42:27Z</time>
      </trkpt>
      <trkpt lat="49.63746" lon="4.97773">
        <ele>160.2</ele>
        <time>2019-03-17T12:42:47Z</time>
      </trkpt>
      <trkpt lat="49.6373" lon="4.9776">
        <ele>160.68</ele>
        <time>2019-03-17T12:43:05Z</time>
      </trkpt>
      <trkpt lat="49.63716" lon="4.97745">
        <ele>159.72</ele>
        <time>2019-03-17T12:43:21Z</time>
      </trkpt>
      <trkpt lat="49.63695" lon="4.97729">
        <ele>163.56</ele>
        <time>2019-03-17T12:43:42Z</time>
      </trkpt>
      <trkpt lat="49.63673" lon="4.97718">
        <ele>165.96</ele>
        <time>2019-03-17T12:44:04Z</time>
      </trkpt>
      <trkpt lat="49.63658" lon="4.97707">
        <ele>165.96</ele>
        <time>2019-03-17T12:44:22Z</time>
      </trkpt>
      <trkpt lat="49.63646" lon="4.97698">
        <ele>165.96</ele>
        <time>2019-03-17T12:44:40Z</time>
      </trkpt>
      <trkpt lat="49.63631" lon="4.97681">
        <ele>164.52</ele>
        <time>2019-03-17T12:44:58Z</time>
      </trkpt>
      <trkpt lat="49.6362" lon="4.97665">
        <ele>163.08</ele>
        <time>2019-03-17T12:45:15Z</time>
      </trkpt>
      <trkpt lat="49.63614" lon="4.9766">
        <ele>162.12</ele>
        <time>2019-03-17T12:45:23Z</time>
      </trkpt>
      <trkpt lat="49.63597" lon="4.9767">
        <ele>158.75</ele>
        <time>2019-03-17T12:45:41Z</time>
      </trkpt>
      <trkpt lat="49.63584" lon="4.9768">
        <ele>155.39</ele>
        <time>2019-03-17T12:45:56Z</time>
      </trkpt>
      <trkpt lat="49.63583" lon="4.97683">
        <ele>155.87</ele>
        <time>2019-03-17T12:46:14Z</time>
      </trkpt>
      <trkpt lat="49.63579" lon="4.97686">
        <ele>157.79</ele>
        <time>2019-03-17T12:46:30Z</time>
      </trkpt>
      <trkpt lat="49.63578" lon="4.97692">
        <ele>160.2</ele>
        <time>2019-03-17T12:46:47Z</time>
      </trkpt>
      <trkpt lat="49.63578" lon="4.97692">
        <ele>160.68</ele>
        <time>2019-03-17T12:47:05Z</time>
      </trkpt>
      <trkpt lat="49.63579" lon="4.97693">
        <ele>160.68</ele>
        <time>2019-03-17T12:47:30Z</time>
      </trkpt>
      <trkpt lat="49.63579" lon="4.97693">
        <ele>160.68</ele>
        <time>2019-03-17T12:47:49Z</time>
      </trkpt>
      <trkpt lat="49.6358" lon="4.97696">
        <ele>161.16</ele>
        <time>2019-03-17T12:48:03Z</time>
      </trkpt>
      <trkpt lat="49.63577" lon="4.97697">
        <ele>162.6</ele>
        <time>2019-03-17T12:48:19Z</time>
      </trkpt>
      <trkpt lat="49.6357" lon="4.97706">
        <ele>159.72</ele>
        <time>2019-03-17T12:48:33Z</time>
      </trkpt>
      <trkpt lat="49.63567" lon="4.9771">
        <ele>159.24</ele>
        <time>2019-03-17T12:48:36Z</time>
      </trkpt>
      <trkpt lat="49.63554" lon="4.97734">
        <ele>160.2</ele>
        <time>2019-03-17T12:48:54Z</time>
      </trkpt>
      <trkpt lat="49.63543" lon="4.97761">
        <ele>162.12</ele>
        <time>2019-03-17T12:49:12Z</time>
      </trkpt>
      <trkpt lat="49.63534" lon="4.9778">
        <ele>163.08</ele>
        <time>2019-03-17T12:49:27Z</time>
      </trkpt>
      <trkpt lat="49.6352" lon="4.97797">
        <ele>164.04</ele>
        <time>2019-03-17T12:49:45Z</time>
      </trkpt>
      <trkpt lat="49.63509" lon="4.97813">
        <ele>162.12</ele>
        <time>2019-03-17T12:50:01Z</time>
      </trkpt>
      <trkpt lat="49.63495" lon="4.97818">
        <ele>160.2</ele>
        <time>2019-03-17T12:50:18Z</time>
      </trkpt>
      <trkpt lat="49.6349" lon="4.97838">
        <ele>158.27</ele>
        <time>2019-03-17T12:50:34Z</time>
      </trkpt>
      <trkpt lat="49.63477" lon="4.97858">
        <ele>162.6</ele>
        <time>2019-03-17T12:50:49Z</time>
      </trkpt>
      <trkpt lat="49.63457" lon="4.97884">
        <ele>165.48</ele>
        <time>2019-03-17T12:51:08Z</time>
      </trkpt>
      <trkpt lat="49.63444" lon="4.97899">
        <ele>165.96</ele>
        <time>2019-03-17T12:51:23Z</time>
      </trkpt>
      <trkpt lat="49.63427" lon="4.97906">
        <ele>166.93</ele>
        <time>2019-03-17T12:51:41Z</time>
      </trkpt>
      <trkpt lat="49.63424" lon="4.97908">
        <ele>167.41</ele>
        <time>2019-03-17T12:51:44Z</time>
      </trkpt>
      <trkpt lat="49.63407" lon="4.97921">
        <ele>169.33</ele>
        <time>2019-03-17T12:52:03Z</time>
      </trkpt>
      <trkpt lat="49.63405" lon="4.97921">
        <ele>169.33</ele>
        <time>2019-03-17T12:52:04Z</time>
      </trkpt>
      <trkpt lat="49.63392" lon="4.97939">
        <ele>168.37</ele>
        <time>2019-03-17T12:52:24Z</time>
      </trkpt>
      <trkpt lat="49.63391" lon="4.97955">
        <ele>168.37</ele>
        <time>2019-03-17T12:52:40Z</time>
      </trkpt>
      <trkpt lat="49.63397" lon="4.97975">
        <ele>167.41</ele>
        <time>2019-03-17T12:52:56Z</time>
      </trkpt>
      <trkpt lat="49.634" lon="4.97991">
        <ele>165.96</ele>
        <time>2019-03-17T12:53:05Z</time>
      </trkpt>
      <trkpt lat="49.63406" lon="4.98015">
        <ele>164.04</ele>
        <time>2019-03-17T12:53:21Z</time>
      </trkpt>
      <trkpt lat="49.63417" lon="4.98043">
        <ele>165</ele>
        <time>2019-03-17T12:53:39Z</time>
      </trkpt>
      <trkpt lat="49.63433" lon="4.98047">
        <ele>164.52</ele>
        <time>2019-03-17T12:53:55Z</time>
      </trkpt>
      <trkpt lat="49.63442" lon="4.98053">
        <ele>166.93</ele>
        <time>2019-03-17T12:54:10Z</time>
      </trkpt>
      <trkpt lat="49.63448" lon="4.98053">
        <ele>173.17</ele>
        <time>2019-03-17T12:54:27Z</time>
      </trkpt>
      <trkpt lat="49.63448" lon="4.98053">
        <ele>173.66</ele>
        <time>2019-03-17T12:54:28Z</time>
      </trkpt>
    </trkseg>
  </trk>
</gpx>